Observation data for Fritch on 05/26/2019      Previous  Date  Next       Current Mesonet Observations  Soil Data  Daily Summary Page  Observations in Plain Language
KFR1 260500Z 10007KT 20/17 A2995 RMK A01 T01960167  RH  084%=      5-min Rain = 0
KFR1 260501Z 10007KT 20/17 A2995 RMK A01 T01950167  RH  084%=      5-min Rain = 0
KFR1 260502Z 10007KT 20/17 A2996 RMK A01 T01950168  RH  084%=      5-min Rain = 0
KFR1 260503Z 11007KT 20/17 A2996 RMK A01 T01950168  RH  084%=      5-min Rain = 0
KFR1 260504Z 11006KT 20/17 A2996 RMK A01 T01960169  RH  084%=      5-min Rain = 0
KFR1 260505Z 11006KT 20/17 A2996 RMK A01 T01970169  RH  084%=      5-min Rain = 0
KFR1 260506Z 10006KT 20/17 A2996 RMK A01 T01970169  RH  084%=      5-min Rain = 0
KFR1 260507Z 11006KT 20/17 A2996 RMK A01 T01960169  RH  084%=      5-min Rain = 0
KFR1 260508Z 11006KT 20/17 A2996 RMK A01 T01960169  RH  084%=      5-min Rain = 0
KFR1 260509Z 10006KT 20/17 A2996 RMK A01 T01960168  RH  084%=      5-min Rain = 0
KFR1 260510Z 11006KT 20/17 A2996 RMK A01 T01950168  RH  084%=      5-min Rain = 0
KFR1 260511Z 11007KT 20/17 A2996 RMK A01 T01950168  RH  084%=      5-min Rain = 0
KFR1 260512Z 11006KT 20/17 A2995 RMK A01 T01950168  RH  085%=      5-min Rain = 0
KFR1 260513Z 11006KT 19/17 A2996 RMK A01 T01930168  RH  085%=      5-min Rain = 0
KFR1 260514Z 11006KT 19/17 A2996 RMK A01 T01930168  RH  085%=      5-min Rain = 0
KFR1 260515Z 11006KT 19/17 A2996 RMK A01 T01930168  RH  085%=      5-min Rain = 0
KFR1 260516Z 10007KT 19/17 A2996 RMK A01 T01920168  RH  086%=      5-min Rain = 0
KFR1 260517Z 11006KT 19/17 A2996 RMK A01 T01920168  RH  086%=      5-min Rain = 0
KFR1 260518Z 11005KT 19/17 A2996 RMK A01 T01920168  RH  086%=      5-min Rain = 0
KFR1 260519Z 10005KT 19/17 A2996 RMK A01 T01920168  RH  086%=      5-min Rain = 0
KFR1 260520Z 10005KT 19/17 A2996 RMK A01 T01910167  RH  086%=      5-min Rain = 0
KFR1 260521Z 10005KT 19/17 A2996 RMK A01 T01910167  RH  086%=      5-min Rain = 0
KFR1 260522Z 09006KT 19/17 A2996 RMK A01 T01900167  RH  086%=      5-min Rain = 0
KFR1 260523Z 09006KT 19/17 A2996 RMK A01 T01900167  RH  086%=      5-min Rain = 0
KFR1 260524Z 09006KT 19/17 A2996 RMK A01 T01890166  RH  086%=      5-min Rain = 0
KFR1 260525Z 09005KT 19/17 A2996 RMK A01 T01890166  RH  087%=      5-min Rain = 0
KFR1 260526Z 08005KT 19/17 A2996 RMK A01 T01890166  RH  087%=      5-min Rain = 0
KFR1 260527Z 08005KT 19/17 A2997 RMK A01 T01890166  RH  086%=      5-min Rain = 0
KFR1 260528Z 08004KT 19/17 A2997 RMK A01 T01880165  RH  086%=      5-min Rain = 0
KFR1 260529Z 09005KT 19/17 A2997 RMK A01 T01870165  RH  087%=      5-min Rain = 0
KFR1 260530Z 07004KT 19/16 A2997 RMK A01 T01870164  RH  087%=      5-min Rain = 0
KFR1 260531Z 08005KT 19/16 A2997 RMK A01 T01860164  RH  087%=      5-min Rain = 0
KFR1 260532Z 08005KT 19/16 A2997 RMK A01 T01850164  RH  087%=      5-min Rain = 0
KFR1 260533Z 07004KT 19/16 A2997 RMK A01 T01850163  RH  087%=      5-min Rain = 0
KFR1 260534Z 06005KT 18/16 A2997 RMK A01 T01840163  RH  088%=      5-min Rain = 0
KFR1 260535Z 07005KT 18/16 A2997 RMK A01 T01830163  RH  088%=      5-min Rain = 0
KFR1 260536Z 06006KT 18/16 A2997 RMK A01 T01820162  RH  088%=      5-min Rain = 0
KFR1 260537Z 07006KT 18/16 A2997 RMK A01 T01820162  RH  088%=      5-min Rain = 0
KFR1 260538Z 08005KT 18/16 A2997 RMK A01 T01810162  RH  089%=      5-min Rain = 0
KFR1 260539Z 08006KT 18/16 A2997 RMK A01 T01800161  RH  089%=      5-min Rain = 0
KFR1 260540Z 08006KT 18/16 A2997 RMK A01 T01790161  RH  089%=      5-min Rain = 0
KFR1 260541Z 08006KT 18/16 A2997 RMK A01 T01790161  RH  089%=      5-min Rain = 0
KFR1 260542Z 08006KT 18/16 A2997 RMK A01 T01780161  RH  090%=      5-min Rain = 0
KFR1 260543Z 08006KT 18/16 A2997 RMK A01 T01780161  RH  090%=      5-min Rain = 0
KFR1 260544Z 08006KT 18/16 A2997 RMK A01 T01770161  RH  090%=      5-min Rain = 0
KFR1 260545Z 08006KT 18/16 A2997 RMK A01 T01760161  RH  091%=      5-min Rain = 0
KFR1 260546Z 09006KT 18/16 A2997 RMK A01 T01760161  RH  091%=      5-min Rain = 0
KFR1 260547Z 09005KT 18/16 A2997 RMK A01 T01750161  RH  091%=      5-min Rain = 0
KFR1 260548Z 08005KT 18/16 A2997 RMK A01 T01750161  RH  091%=      5-min Rain = 0
KFR1 260549Z 08005KT 18/16 A2997 RMK A01 T01750161  RH  091%=      5-min Rain = 0
KFR1 260550Z 08005KT 18/16 A2997 RMK A01 T01750161  RH  092%=      5-min Rain = 0
KFR1 260551Z 09005KT 18/16 A2997 RMK A01 T01750162  RH  092%=      5-min Rain = 0
KFR1 260552Z 09005KT 18/16 A2997 RMK A01 T01760162  RH  092%=      5-min Rain = 0
KFR1 260553Z 10006KT 18/16 A2997 RMK A01 T01760162  RH  091%=      5-min Rain = 0
KFR1 260554Z 10006KT 18/16 A2997 RMK A01 T01760162  RH  091%=      5-min Rain = 0
KFR1 260555Z 10006KT 18/16 A2997 RMK A01 T01760162  RH  092%=      5-min Rain = 0
KFR1 260556Z 10005KT 18/16 A2997 RMK A01 T01760162  RH  092%=      5-min Rain = 0
KFR1 260557Z 09005KT 18/16 A2997 RMK A01 T01760162  RH  091%=      5-min Rain = 0
KFR1 260558Z 09004KT 18/16 A2997 RMK A01 T01760162  RH  091%=      5-min Rain = 0
KFR1 260559Z 09005KT 18/16 A2997 RMK A01 T01760162  RH  091%=      5-min Rain = 0
KFR1 260600Z 09005KT 18/16 A2997 RMK A01 T01760163  RH  092%=      5-min Rain = 0
KFR1 260601Z 09005KT 18/16 A2997 RMK A01 T01760163  RH  092%=      5-min Rain = 0
KFR1 260602Z 09005KT 18/16 A2997 RMK A01 T01770163  RH  091%=      5-min Rain = 0
KFR1 260603Z 09006KT 18/16 A2997 RMK A01 T01760162  RH  091%=      5-min Rain = 0
KFR1 260604Z 09006KT 18/16 A2997 RMK A01 T01750161  RH  091%=      5-min Rain = 0
KFR1 260605Z 09006KT 18/16 A2997 RMK A01 T01750161  RH  092%=      5-min Rain = 0
KFR1 260606Z 09007KT 17/16 A2997 RMK A01 T01740161  RH  092%=      5-min Rain = 0
KFR1 260607Z 09008KT 17/16 A2997 RMK A01 T01740161  RH  092%=      5-min Rain = 0
KFR1 260608Z 09007KT 17/16 A2997 RMK A01 T01740160  RH  092%=      5-min Rain = 0
KFR1 260609Z 09007KT 17/16 A2997 RMK A01 T01730160  RH  092%=      5-min Rain = 0
KFR1 260610Z 09008KT 17/16 A2997 RMK A01 T01730159  RH  092%=      5-min Rain = 0
KFR1 260611Z 09007KT 17/16 A2997 RMK A01 T01720158  RH  092%=      5-min Rain = 0
KFR1 260612Z 09007KT 17/16 A2997 RMK A01 T01710158  RH  092%=      5-min Rain = 0
KFR1 260613Z 09007KT 17/16 A2998 RMK A01 T01710157  RH  092%=      5-min Rain = 0
KFR1 260614Z 09008KT 17/16 A2998 RMK A01 T01700157  RH  092%=      5-min Rain = 0
KFR1 260615Z 09007KT 17/16 A2997 RMK A01 T01690156  RH  092%=      5-min Rain = 0
KFR1 260616Z 10008KT 17/16 A2998 RMK A01 T01680156  RH  092%=      5-min Rain = 0
KFR1 260617Z 10009KT 17/16 A2998 RMK A01 T01670155  RH  093%=      5-min Rain = 0
KFR1 260618Z 10009KT 17/16 A2998 RMK A01 T01670155  RH  093%=      5-min Rain = 0
KFR1 260619Z 10009KT 17/16 A2997 RMK A01 T01660155  RH  093%=      5-min Rain = 0
KFR1 260620Z 10009KT 17/16 A2998 RMK A01 T01660155  RH  093%=      5-min Rain = 0
KFR1 260621Z 10009KT 17/16 A2998 RMK A01 T01660156  RH  094%=      5-min Rain = 0
KFR1 260622Z 10008KT 17/16 A2997 RMK A01 T01660156  RH  094%=      5-min Rain = 0
KFR1 260623Z 11008KT 17/16 A2997 RMK A01 T01660156  RH  094%=      5-min Rain = 0
KFR1 260624Z 11007KT 17/16 A2998 RMK A01 T01660156  RH  094%=      5-min Rain = 0
KFR1 260625Z 11007KT 17/16 A2998 RMK A01 T01660156  RH  094%=      5-min Rain = 0
KFR1 260626Z 11007KT 17/16 A2997 RMK A01 T01660157  RH  094%=      5-min Rain = 0
KFR1 260627Z 10006KT 17/16 A2997 RMK A01 T01660157  RH  094%=      5-min Rain = 0
KFR1 260628Z 11007KT 17/16 A2997 RMK A01 T01670157  RH  094%=      5-min Rain = 0
KFR1 260629Z 11007KT 17/16 A2997 RMK A01 T01670157  RH  094%=      5-min Rain = 0
KFR1 260630Z 11007KT 17/16 A2997 RMK A01 T01670157  RH  094%=      5-min Rain = 0
KFR1 260631Z 10007KT 17/16 A2997 RMK A01 T01670157  RH  094%=      5-min Rain = 0
KFR1 260632Z 10007KT 17/16 A2997 RMK A01 T01670157  RH  094%=      5-min Rain = 0
KFR1 260633Z 10006KT 17/16 A2997 RMK A01 T01670157  RH  094%=      5-min Rain = 0
KFR1 260634Z 10006KT 17/16 A2998 RMK A01 T01670157  RH  094%=      5-min Rain = 0
KFR1 260635Z 10007KT 17/16 A2998 RMK A01 T01670158  RH  094%=      5-min Rain = 0
KFR1 260636Z 10006KT 17/16 A2998 RMK A01 T01680159  RH  094%=      5-min Rain = 0
KFR1 260637Z 09006KT 17/16 A2998 RMK A01 T01680158  RH  094%=      5-min Rain = 0
KFR1 260638Z 08005KT 17/16 A2998 RMK A01 T01680158  RH  094%=      5-min Rain = 0
KFR1 260639Z 08006KT 17/16 A2998 RMK A01 T01680158  RH  094%=      5-min Rain = 0
KFR1 260640Z 08006KT 17/16 A2998 RMK A01 T01680158  RH  094%=      5-min Rain = 0
KFR1 260641Z 08006KT 17/16 A2997 RMK A01 T01670157  RH  094%=      5-min Rain = 0
KFR1 260642Z 07007KT 17/16 A2997 RMK A01 T01670157  RH  094%=      5-min Rain = 0
KFR1 260643Z 08006KT 17/16 A2998 RMK A01 T01660156  RH  094%=      5-min Rain = 0
KFR1 260644Z 08006KT 17/16 A2998 RMK A01 T01650155  RH  094%=      5-min Rain = 0
KFR1 260645Z 08008KT 16/16 A2997 RMK A01 T01640155  RH  094%=      5-min Rain = 0
KFR1 260646Z 08009KT 16/15 A2997 RMK A01 T01640154  RH  094%=      5-min Rain = 0
KFR1 260647Z 08009KT 16/15 A2997 RMK A01 T01630154  RH  094%=      5-min Rain = 0
KFR1 260648Z 08008KT 16/15 A2997 RMK A01 T01620153  RH  094%=      5-min Rain = 0
KFR1 260649Z 08008KT 16/15 A2997 RMK A01 T01610152  RH  095%=      5-min Rain = 0
KFR1 260650Z 08008KT 16/15 A2997 RMK A01 T01600152  RH  095%=      5-min Rain = 0
KFR1 260651Z 08008KT 16/15 A2997 RMK A01 T01600152  RH  095%=      5-min Rain = 0
KFR1 260652Z 09009KT 16/15 A2997 RMK A01 T01600152  RH  095%=      5-min Rain = 0
KFR1 260653Z 09007KT 16/15 A2997 RMK A01 T01590152  RH  095%=      5-min Rain = 0
KFR1 260654Z 08008KT 16/15 A2997 RMK A01 T01590152  RH  096%=      5-min Rain = 0
KFR1 260655Z 09007KT 16/15 A2997 RMK A01 T01590152  RH  096%=      5-min Rain = 0
KFR1 260656Z 09008KT 16/15 A2997 RMK A01 T01580152  RH  096%=      5-min Rain = 0
KFR1 260657Z 09008KT 16/15 A2997 RMK A01 T01580152  RH  096%=      5-min Rain = 0
KFR1 260658Z 09007KT 16/15 A2997 RMK A01 T01580152  RH  096%=      5-min Rain = 0
KFR1 260659Z 10007KT 16/15 A2997 RMK A01 T01580152  RH  096%=      5-min Rain = 0
KFR1 260700Z 10006KT 16/15 A2997 RMK A01 T01580152  RH  096%=      5-min Rain = 0
KFR1 260701Z 10007KT 16/15 A2997 RMK A01 T01580152  RH  096%=      5-min Rain = 0
KFR1 260702Z 10007KT 16/15 A2997 RMK A01 T01580152  RH  096%=      5-min Rain = 0
KFR1 260703Z 10007KT 16/15 A2997 RMK A01 T01580152  RH  096%=      5-min Rain = 0
KFR1 260704Z 10007KT 16/15 A2997 RMK A01 T01580152  RH  096%=      5-min Rain = 0
KFR1 260705Z 10007KT 16/15 A2997 RMK A01 T01580152  RH  096%=      5-min Rain = 0
KFR1 260706Z 10008KT 16/15 A2997 RMK A01 T01580152  RH  096%=      5-min Rain = 0
KFR1 260707Z 10007KT 16/15 A2997 RMK A01 T01580152  RH  096%=      5-min Rain = 0
KFR1 260708Z 10007KT 16/15 A2997 RMK A01 T01570152  RH  096%=      5-min Rain = 0
KFR1 260709Z 09007KT 16/15 A2997 RMK A01 T01580152  RH  097%=      5-min Rain = 0
KFR1 260710Z 10006KT 16/15 A2997 RMK A01 T01570152  RH  097%=      5-min Rain = 0
KFR1 260711Z 09006KT 16/15 A2997 RMK A01 T01570152  RH  097%=      5-min Rain = 0
KFR1 260712Z 09006KT 16/15 A2997 RMK A01 T01570152  RH  097%=      5-min Rain = 0
KFR1 260713Z 09006KT 16/15 A2997 RMK A01 T01570152  RH  097%=      5-min Rain = 0
KFR1 260714Z 09006KT 16/15 A2997 RMK A01 T01570152  RH  097%=      5-min Rain = 0
KFR1 260715Z 09005KT 16/15 A2997 RMK A01 T01570152  RH  097%=      5-min Rain = 0
KFR1 260716Z 09005KT 16/15 A2997 RMK A01 T01570152  RH  097%=      5-min Rain = 0
KFR1 260717Z 09005KT 16/15 A2997 RMK A01 T01580153  RH  097%=      5-min Rain = 0
KFR1 260718Z 09005KT 16/15 A2997 RMK A01 T01580153  RH  097%=      5-min Rain = 0
KFR1 260719Z 10004KT 16/15 A2997 RMK A01 T01580153  RH  097%=      5-min Rain = 0
KFR1 260720Z 12005KT 16/15 A2997 RMK A01 T01580154  RH  097%=      5-min Rain = 0
KFR1 260721Z 12006KT 16/15 A2997 RMK A01 T01590154  RH  097%=      5-min Rain = 0
KFR1 260722Z 12007KT 16/16 A2997 RMK A01 T01640161  RH  098%=      5-min Rain = 0
KFR1 260723Z 13008KT 17/17 A2997 RMK A01 T01680165  RH  098%=      5-min Rain = 0
KFR1 260724Z 14008KT 17/17 A2997 RMK A01 T01730169  RH  098%=      5-min Rain = 0
KFR1 260725Z 14008KT 18/17 A2997 RMK A01 T01760173  RH  098%=      5-min Rain = 0
KFR1 260726Z 15007KT 18/18 A2997 RMK A01 T01790175  RH  098%=      5-min Rain = 0
KFR1 260727Z 14007KT 18/18 A2997 RMK A01 T01800176  RH  097%=      5-min Rain = 0
KFR1 260728Z 15008KT 18/18 A2997 RMK A01 T01810176  RH  097%=      5-min Rain = 0
KFR1 260729Z 15009KT 18/18 A2997 RMK A01 T01820176  RH  097%=      5-min Rain = 0
KFR1 260730Z 15008KT 18/18 A2997 RMK A01 T01840178  RH  096%=      5-min Rain = 0
KFR1 260731Z 15007KT 19/18 A2997 RMK A01 T01850178  RH  096%=      5-min Rain = 0
KFR1 260732Z 15009G14KT 19/18 A2997 RMK A01 T01850177  RH  095%=      5-min Rain = 0
KFR1 260733Z 14008KT 19/18 A2997 RMK A01 T01860178  RH  095%=      5-min Rain = 0
KFR1 260734Z 16008G13KT 19/18 A2997 RMK A01 T01870178  RH  094%=      5-min Rain = 0
KFR1 260735Z 16008G13KT 19/18 A2997 RMK A01 T01870177  RH  094%=      5-min Rain = 0
KFR1 260736Z 15008KT 19/18 A2997 RMK A01 T01870177  RH  094%=      5-min Rain = 0
KFR1 260737Z 16011KT 19/18 A2997 RMK A01 T01870177  RH  094%=      5-min Rain = 0
KFR1 260738Z 15008G13KT 19/18 A2997 RMK A01 T01870177  RH  094%=      5-min Rain = 0
KFR1 260739Z 16012KT 19/18 A2997 RMK A01 T01870177  RH  094%=      5-min Rain = 0
KFR1 260740Z 15009KT 19/18 A2997 RMK A01 T01880177  RH  094%=      5-min Rain = 0
KFR1 260741Z 16011KT 19/18 A2997 RMK A01 T01880177  RH  094%=      5-min Rain = 0
KFR1 260742Z 15012KT 19/18 A2996 RMK A01 T01880178  RH  094%=      5-min Rain = 0
KFR1 260743Z 16011KT 19/18 A2996 RMK A01 T01880178  RH  094%=      5-min Rain = 0
KFR1 260744Z 15009KT 19/18 A2996 RMK A01 T01880178  RH  094%=      5-min Rain = 0
KFR1 260745Z 16010KT 19/18 A2996 RMK A01 T01880178  RH  094%=      5-min Rain = 0
KFR1 260746Z 15008G13KT 19/18 A2997 RMK A01 T01880178  RH  094%=      5-min Rain = 0
KFR1 260747Z 15010KT 19/18 A2997 RMK A01 T01880178  RH  094%=      5-min Rain = 0
KFR1 260748Z 15009KT 19/18 A2996 RMK A01 T01880178  RH  094%=      5-min Rain = 0
KFR1 260749Z 16011G17KT 19/18 A2996 RMK A01 T01880178  RH  094%=      5-min Rain = 0
KFR1 260750Z 15010G15KT 19/18 A2996 RMK A01 T01880178  RH  094%=      5-min Rain = 0
KFR1 260751Z 16011KT 19/18 A2996 RMK A01 T01890178  RH  094%=      5-min Rain = 0
KFR1 260752Z 16011KT 19/18 A2996 RMK A01 T01890179  RH  094%=      5-min Rain = 0
KFR1 260753Z 15009G14KT 19/18 A2996 RMK A01 T01890179  RH  094%=      5-min Rain = 0
KFR1 260754Z 16009G15KT 19/18 A2996 RMK A01 T01890179  RH  094%=      5-min Rain = 0
KFR1 260755Z 16010KT 19/18 A2996 RMK A01 T01890178  RH  094%=      5-min Rain = 0
KFR1 260756Z 16009KT 19/18 A2996 RMK A01 T01880178  RH  094%=      5-min Rain = 0
KFR1 260757Z 16009KT 19/18 A2996 RMK A01 T01880178  RH  094%=      5-min Rain = 0
KFR1 260758Z 16011KT 19/18 A2996 RMK A01 T01880178  RH  094%=      5-min Rain = 0
KFR1 260759Z 16012KT 19/18 A2996 RMK A01 T01880178  RH  094%=      5-min Rain = 0
KFR1 260800Z 16010KT 19/18 A2996 RMK A01 T01880179  RH  094%=      5-min Rain = 0
KFR1 260801Z 16013KT 19/18 A2996 RMK A01 T01880178  RH  094%=      5-min Rain = 0
KFR1 260802Z 16012KT 19/18 A2996 RMK A01 T01880178  RH  094%=      5-min Rain = 0
KFR1 260803Z 16011KT 19/18 A2996 RMK A01 T01880178  RH  094%=      5-min Rain = 0
KFR1 260804Z 17013KT 19/18 A2996 RMK A01 T01880178  RH  094%=      5-min Rain = 0
KFR1 260805Z 16011KT 19/18 A2996 RMK A01 T01880178  RH  094%=      5-min Rain = 0
KFR1 260806Z 16011KT 19/18 A2996 RMK A01 T01880178  RH  094%=      5-min Rain = 0
KFR1 260807Z 16011KT 19/18 A2996 RMK A01 T01880178  RH  094%=      5-min Rain = 0
KFR1 260808Z 16013KT 19/18 A2996 RMK A01 T01880178  RH  094%=      5-min Rain = 0
KFR1 260809Z 16012KT 19/18 A2996 RMK A01 T01870178  RH  094%=      5-min Rain = 0
KFR1 260810Z 16012KT 19/18 A2996 RMK A01 T01870178  RH  094%=      5-min Rain = 0
KFR1 260811Z 16012KT 19/18 A2996 RMK A01 T01870178  RH  094%=      5-min Rain = 0
KFR1 260812Z 16012KT 19/18 A2996 RMK A01 T01870178  RH  094%=      5-min Rain = 0
KFR1 260813Z 16013KT 19/18 A2996 RMK A01 T01880178  RH  094%=      5-min Rain = 0
KFR1 260814Z 16011G16KT 19/18 A2996 RMK A01 T01880179  RH  094%=      5-min Rain = 0
KFR1 260815Z 16012KT 19/18 A2996 RMK A01 T01880178  RH  094%=      5-min Rain = 0
KFR1 260816Z 16012KT 19/18 A2996 RMK A01 T01880179  RH  094%=      5-min Rain = 0
KFR1 260817Z 16012KT 19/18 A2996 RMK A01 T01880179  RH  094%=      5-min Rain = 0
KFR1 260818Z 16014KT 19/18 A2996 RMK A01 T01880179  RH  095%=      5-min Rain = 0
KFR1 260819Z 16013G18KT 19/18 A2996 RMK A01 T01870179  RH  095%=      5-min Rain = 0
KFR1 260820Z 16015KT 19/18 A2996 RMK A01 T01870179  RH  095%=      5-min Rain = 0
KFR1 260821Z 17017KT 19/18 A2995 RMK A01 T01880179  RH  095%=      5-min Rain = 0
KFR1 260822Z 16013KT 19/18 A2995 RMK A01 T01870179  RH  095%=      5-min Rain = 0
KFR1 260823Z 16011KT 19/18 A2995 RMK A01 T01870179  RH  095%=      5-min Rain = 0
KFR1 260824Z 17012KT 19/18 A2995 RMK A01 T01870179  RH  095%=      5-min Rain = 0
KFR1 260825Z 16013KT 19/18 A2995 RMK A01 T01870179  RH  095%=      5-min Rain = 0
KFR1 260826Z 17012KT 19/18 A2995 RMK A01 T01870179  RH  095%=      5-min Rain = 0
KFR1 260827Z 16013KT 19/18 A2995 RMK A01 T01870179  RH  095%=      5-min Rain = 0
KFR1 260828Z 16012G17KT 19/18 A2995 RMK A01 T01870179  RH  095%=      5-min Rain = 0
KFR1 260829Z 16011KT 19/18 A2995 RMK A01 T01870179  RH  095%=      5-min Rain = 0
KFR1 260830Z 17012G17KT 19/18 A2995 RMK A01 T01860178  RH  095%=      5-min Rain = 0
KFR1 260831Z 16013G18KT 19/18 A2995 RMK A01 T01860179  RH  095%=      5-min Rain = 0
KFR1 260832Z 16016KT 19/18 A2995 RMK A01 T01860179  RH  095%=      5-min Rain = 0
KFR1 260833Z 16014KT 19/18 A2995 RMK A01 T01860179  RH  095%=      5-min Rain = 0
KFR1 260834Z 16011KT 19/18 A2995 RMK A01 T01860179  RH  095%=      5-min Rain = 0
KFR1 260835Z 17014KT 19/18 A2995 RMK A01 T01860179  RH  095%=      5-min Rain = 0
KFR1 260836Z 17013KT 19/18 A2995 RMK A01 T01860178  RH  095%=      5-min Rain = 0
KFR1 260837Z 17013KT 19/18 A2995 RMK A01 T01860179  RH  095%=      5-min Rain = 0
KFR1 260838Z 17013KT 19/18 A2995 RMK A01 T01860179  RH  095%=      5-min Rain = 0
KFR1 260839Z 17013KT 19/18 A2995 RMK A01 T01860179  RH  095%=      5-min Rain = 0
KFR1 260840Z 16012KT 19/18 A2995 RMK A01 T01860179  RH  095%=      5-min Rain = 0
KFR1 260841Z 16013KT 19/18 A2995 RMK A01 T01860179  RH  095%=      5-min Rain = 0
KFR1 260842Z 17013KT 19/18 A2995 RMK A01 T01860179  RH  096%=      5-min Rain = 0
KFR1 260843Z 17014KT 19/18 A2995 RMK A01 T01860179  RH  095%=      5-min Rain = 0
KFR1 260844Z 16012KT 19/18 A2995 RMK A01 T01860179  RH  095%=      5-min Rain = 0
KFR1 260845Z 16013G18KT 19/18 A2995 RMK A01 T01860179  RH  095%=      5-min Rain = 0
KFR1 260846Z 16013KT 19/18 A2995 RMK A01 T01860179  RH  095%=      5-min Rain = 0
KFR1 260847Z 17013G18KT 19/18 A2995 RMK A01 T01860179  RH  095%=      5-min Rain = 0
KFR1 260848Z 17013KT 19/18 A2995 RMK A01 T01860179  RH  095%=      5-min Rain = 0
KFR1 260849Z 17012KT 19/18 A2995 RMK A01 T01860179  RH  095%=      5-min Rain = 0
KFR1 260850Z 17013KT 19/18 A2995 RMK A01 T01860179  RH  095%=      5-min Rain = 0
KFR1 260851Z 17013KT 19/18 A2995 RMK A01 T01860179  RH  095%=      5-min Rain = 0
KFR1 260852Z 17013G18KT 19/18 A2995 RMK A01 T01860179  RH  095%=      5-min Rain = 0
KFR1 260853Z 17014KT 19/18 A2995 RMK A01 T01860178  RH  095%=      5-min Rain = 0
KFR1 260854Z 17013KT 19/18 A2995 RMK A01 T01860179  RH  095%=      5-min Rain = 0
KFR1 260855Z 17014KT 19/18 A2995 RMK A01 T01860179  RH  095%=      5-min Rain = 0
KFR1 260856Z 17015KT 19/18 A2995 RMK A01 T01860179  RH  095%=      5-min Rain = 0
KFR1 260857Z 16012KT 19/18 A2995 RMK A01 T01870179  RH  095%=      5-min Rain = 0
KFR1 260858Z 17014KT 19/18 A2995 RMK A01 T01870179  RH  095%=      5-min Rain = 0
KFR1 260859Z 16012KT 19/18 A2995 RMK A01 T01870179  RH  095%=      5-min Rain = 0
KFR1 260900Z 16014KT 19/18 A2995 RMK A01 T01870179  RH  095%=      5-min Rain = 0
KFR1 260901Z 17012KT 19/18 A2995 RMK A01 T01870179  RH  095%=      5-min Rain = 0
KFR1 260902Z 17013KT 19/18 A2995 RMK A01 T01870179  RH  095%=      5-min Rain = 0
KFR1 260903Z 17012G17KT 19/18 A2995 RMK A01 T01870179  RH  095%=      5-min Rain = 0
KFR1 260904Z 17014KT 19/18 A2995 RMK A01 T01870179  RH  095%=      5-min Rain = 0
KFR1 260905Z 17013KT 19/18 A2995 RMK A01 T01870179  RH  095%=      5-min Rain = 0
KFR1 260906Z 17014KT 19/18 A2995 RMK A01 T01870179  RH  095%=      5-min Rain = 0
KFR1 260907Z 17013KT 19/18 A2995 RMK A01 T01870179  RH  095%=      5-min Rain = 0
KFR1 260908Z 17013KT 19/18 A2995 RMK A01 T01870179  RH  095%=      5-min Rain = 0
KFR1 260909Z 17014KT 19/18 A2995 RMK A01 T01870179  RH  095%=      5-min Rain = 0
KFR1 260910Z 17013KT 19/18 A2995 RMK A01 T01880180  RH  095%=      5-min Rain = 0
KFR1 260911Z 17011KT 19/18 A2995 RMK A01 T01870179  RH  095%=      5-min Rain = 0
KFR1 260912Z 17012KT 19/18 A2995 RMK A01 T01870179  RH  095%=      5-min Rain = 0
KFR1 260913Z 17011KT 19/18 A2995 RMK A01 T01870179  RH  095%=      5-min Rain = 0
KFR1 260914Z 17011KT 19/18 A2995 RMK A01 T01870179  RH  095%=      5-min Rain = 0
KFR1 260915Z 17012KT 19/18 A2995 RMK A01 T01870179  RH  095%=      5-min Rain = 0
KFR1 260916Z 17011G16KT 19/18 A2995 RMK A01 T01870179  RH  095%=      5-min Rain = 0
KFR1 260917Z 16012KT 19/18 A2995 RMK A01 T01870179  RH  095%=      5-min Rain = 0
KFR1 260918Z 16011KT 19/18 A2995 RMK A01 T01870179  RH  095%=      5-min Rain = 0
KFR1 260919Z 17012KT 19/18 A2995 RMK A01 T01870179  RH  095%=      5-min Rain = 0
KFR1 260920Z 17012G17KT 19/18 A2995 RMK A01 T01870179  RH  095%=      5-min Rain = 0
KFR1 260921Z 17011KT 19/18 A2996 RMK A01 T01870179  RH  095%=      5-min Rain = 0
KFR1 260922Z 17011KT 19/18 A2996 RMK A01 T01870179  RH  095%=      5-min Rain = 0
KFR1 260923Z 17012KT 19/18 A2996 RMK A01 T01870179  RH  095%=      5-min Rain = 0
KFR1 260924Z 17011KT 19/18 A2996 RMK A01 T01870179  RH  095%=      5-min Rain = 0
KFR1 260925Z 17011KT 19/18 A2996 RMK A01 T01870179  RH  095%=      5-min Rain = 0
KFR1 260926Z 17010KT 19/18 A2996 RMK A01 T01870179  RH  095%=      5-min Rain = 0
KFR1 260927Z 17010KT 19/18 A2996 RMK A01 T01870179  RH  095%=      5-min Rain = 0
KFR1 260928Z 17012KT 19/18 A2996 RMK A01 T01870179  RH  095%=      5-min Rain = 0
KFR1 260929Z 17009KT 19/18 A2996 RMK A01 T01860178  RH  095%=      5-min Rain = 0
KFR1 260930Z 16012KT 19/18 A2996 RMK A01 T01860179  RH  095%=      5-min Rain = 0
KFR1 260931Z 17011G16KT 19/18 A2996 RMK A01 T01860179  RH  095%=      5-min Rain = 0
KFR1 260932Z 17010KT 19/18 A2996 RMK A01 T01870179  RH  095%=      5-min Rain = 0
KFR1 260933Z 17011G16KT 19/18 A2996 RMK A01 T01860178  RH  095%=      5-min Rain = 0
KFR1 260934Z 17010KT 19/18 A2996 RMK A01 T01870179  RH  095%=      5-min Rain = 0
KFR1 260935Z 17011KT 19/18 A2996 RMK A01 T01860179  RH  095%=      5-min Rain = 0
KFR1 260936Z 17012KT 19/18 A2996 RMK A01 T01860179  RH  095%=      5-min Rain = 0
KFR1 260937Z 17012KT 19/18 A2996 RMK A01 T01870179  RH  095%=      5-min Rain = 0
KFR1 260938Z 17012KT 19/18 A2996 RMK A01 T01870179  RH  095%=      5-min Rain = 0
KFR1 260939Z 17012KT 19/18 A2996 RMK A01 T01860178  RH  095%=      5-min Rain = 0
KFR1 260940Z 17011KT 19/18 A2996 RMK A01 T01870179  RH  095%=      5-min Rain = 0
KFR1 260941Z 17010KT 19/18 A2996 RMK A01 T01870179  RH  095%=      5-min Rain = 0
KFR1 260942Z 17011KT 19/18 A2996 RMK A01 T01870179  RH  095%=      5-min Rain = 0
KFR1 260943Z 17010KT 19/18 A2996 RMK A01 T01870179  RH  095%=      5-min Rain = 0
KFR1 260944Z 17009KT 19/18 A2996 RMK A01 T01870179  RH  095%=      5-min Rain = 0
KFR1 260945Z 17009KT 19/18 A2996 RMK A01 T01870179  RH  095%=      5-min Rain = 0
KFR1 260946Z 17010KT 19/18 A2996 RMK A01 T01870179  RH  095%=      5-min Rain = 0
KFR1 260947Z 17009KT 19/18 A2996 RMK A01 T01870179  RH  095%=      5-min Rain = 0
KFR1 260948Z 17009KT 19/18 A2996 RMK A01 T01860178  RH  095%=      5-min Rain = 0
KFR1 260949Z 17010KT 19/18 A2996 RMK A01 T01860178  RH  095%=      5-min Rain = 0
KFR1 260950Z 17009KT 19/18 A2996 RMK A01 T01860178  RH  095%=      5-min Rain = 0
KFR1 260951Z 17011KT 19/18 A2996 RMK A01 T01860178  RH  095%=      5-min Rain = 0
KFR1 260952Z 17011KT 19/18 A2996 RMK A01 T01860178  RH  095%=      5-min Rain = 0
KFR1 260953Z 17011KT 19/18 A2996 RMK A01 T01860178  RH  095%=      5-min Rain = 0
KFR1 260954Z 17010KT 19/18 A2996 RMK A01 T01860178  RH  095%=      5-min Rain = 0
KFR1 260955Z 17010KT 19/18 A2996 RMK A01 T01860178  RH  095%=      5-min Rain = 0
KFR1 260956Z 17009KT 19/18 A2996 RMK A01 T01860178  RH  095%=      5-min Rain = 0
KFR1 260957Z 17011KT 19/18 A2996 RMK A01 T01860178  RH  095%=      5-min Rain = 0
KFR1 260958Z 17011KT 19/18 A2996 RMK A01 T01860178  RH  095%=      5-min Rain = 0
KFR1 260959Z 17010KT 19/18 A2996 RMK A01 T01860178  RH  095%=      5-min Rain = 0
KFR1 261000Z 17010KT 19/18 A2996 RMK A01 T01860178  RH  095%=      5-min Rain = 0
KFR1 261001Z 17008KT 19/18 A2996 RMK A01 T01860178  RH  095%=      5-min Rain = 0
KFR1 261002Z 17011KT 19/18 A2996 RMK A01 T01860178  RH  095%=      5-min Rain = 0
KFR1 261003Z 17011KT 19/18 A2996 RMK A01 T01860178  RH  095%=      5-min Rain = 0
KFR1 261004Z 18010KT 19/18 A2996 RMK A01 T01860178  RH  095%=      5-min Rain = 0
KFR1 261005Z 17012KT 19/18 A2996 RMK A01 T01860178  RH  095%=      5-min Rain = 0
KFR1 261006Z 17012KT 19/18 A2996 RMK A01 T01860178  RH  095%=      5-min Rain = 0
KFR1 261007Z 18012KT 19/18 A2996 RMK A01 T01860178  RH  095%=      5-min Rain = 0
KFR1 261008Z 17012KT 19/18 A2996 RMK A01 T01870179  RH  095%=      5-min Rain = 0
KFR1 261009Z 17012KT 19/18 A2996 RMK A01 T01870178  RH  095%=      5-min Rain = 0
KFR1 261010Z 17011KT 19/18 A2996 RMK A01 T01870178  RH  095%=      5-min Rain = 0
KFR1 261011Z 17011KT 19/18 A2996 RMK A01 T01860178  RH  095%=      5-min Rain = 0
KFR1 261012Z 18011KT 19/18 A2996 RMK A01 T01870179  RH  095%=      5-min Rain = 0
KFR1 261013Z 17010KT 19/18 A2996 RMK A01 T01860178  RH  095%=      5-min Rain = 0
KFR1 261014Z 18010KT 19/18 A2996 RMK A01 T01860178  RH  095%=      5-min Rain = 0
KFR1 261015Z 18010KT 19/18 A2996 RMK A01 T01860179  RH  095%=      5-min Rain = 0
KFR1 261016Z 18011KT 19/18 A2996 RMK A01 T01860179  RH  095%=      5-min Rain = 0
KFR1 261017Z 18011KT 19/18 A2996 RMK A01 T01870179  RH  095%=      5-min Rain = 0
KFR1 261018Z 18010KT 19/18 A2996 RMK A01 T01860179  RH  095%=      5-min Rain = 0
KFR1 261019Z 17011KT 19/18 A2996 RMK A01 T01860179  RH  095%=      5-min Rain = 0
KFR1 261020Z 18010KT 19/18 A2996 RMK A01 T01860178  RH  095%=      5-min Rain = 0
KFR1 261021Z 18010KT 19/18 A2996 RMK A01 T01860179  RH  095%=      5-min Rain = 0
KFR1 261022Z 17009KT 19/18 A2996 RMK A01 T01860179  RH  095%=      5-min Rain = 0
KFR1 261023Z 17010KT 19/18 A2996 RMK A01 T01860179  RH  095%=      5-min Rain = 0
KFR1 261024Z 18009KT 19/18 A2997 RMK A01 T01860179  RH  095%=      5-min Rain = 0
KFR1 261025Z 18008KT 19/18 A2997 RMK A01 T01860178  RH  095%=      5-min Rain = 0
KFR1 261026Z 18010KT 19/18 A2997 RMK A01 T01870179  RH  095%=      5-min Rain = 0
KFR1 261027Z 18009KT 19/18 A2997 RMK A01 T01860179  RH  095%=      5-min Rain = 0
KFR1 261028Z 18007KT 19/18 A2997 RMK A01 T01860178  RH  095%=      5-min Rain = 0
KFR1 261029Z 18010KT 19/18 A2997 RMK A01 T01860179  RH  095%=      5-min Rain = 0
KFR1 261030Z 18008KT 19/18 A2997 RMK A01 T01860179  RH  095%=      5-min Rain = 0
KFR1 261031Z 18009KT 19/18 A2997 RMK A01 T01860179  RH  095%=      5-min Rain = 0
KFR1 261032Z 18008KT 19/18 A2997 RMK A01 T01860178  RH  095%=      5-min Rain = 0
KFR1 261033Z 18007KT 19/18 A2997 RMK A01 T01860178  RH  095%=      5-min Rain = 0
KFR1 261034Z 18007KT 19/18 A2997 RMK A01 T01860179  RH  095%=      5-min Rain = 0
KFR1 261035Z 18008KT 19/18 A2997 RMK A01 T01860178  RH  095%=      5-min Rain = 0
KFR1 261036Z 18008KT 19/18 A2997 RMK A01 T01870179  RH  095%=      5-min Rain = 0
KFR1 261037Z 18007KT 19/18 A2997 RMK A01 T01860178  RH  095%=      5-min Rain = 0
KFR1 261038Z 18007KT 19/18 A2997 RMK A01 T01860178  RH  095%=      5-min Rain = 0
KFR1 261039Z 18006KT 19/18 A2997 RMK A01 T01860178  RH  095%=      5-min Rain = 0
KFR1 261040Z 19007KT 19/18 A2998 RMK A01 T01860178  RH  095%=      5-min Rain = 0
KFR1 261041Z 19007KT 19/18 A2998 RMK A01 T01860178  RH  095%=      5-min Rain = 0
KFR1 261042Z 19007KT 19/18 A2998 RMK A01 T01860178  RH  095%=      5-min Rain = 0
KFR1 261043Z 20007KT 19/18 A2998 RMK A01 T01860178  RH  095%=      5-min Rain = 0
KFR1 261044Z 19006KT 19/18 A2998 RMK A01 T01860178  RH  095%=      5-min Rain = 0
KFR1 261045Z 20006KT 19/18 A2998 RMK A01 T01860178  RH  095%=      5-min Rain = 0
KFR1 261046Z 20005KT 19/18 A2998 RMK A01 T01870178  RH  095%=      5-min Rain = 0
KFR1 261047Z 20006KT 19/18 A2998 RMK A01 T01860177  RH  095%=      5-min Rain = 0
KFR1 261048Z 21005KT 19/18 A2998 RMK A01 T01860177  RH  095%=      5-min Rain = 0
KFR1 261049Z 22004KT 19/18 A2998 RMK A01 T01860177  RH  095%=      5-min Rain = 0
KFR1 261050Z 22004KT 19/18 A2998 RMK A01 T01860177  RH  095%=      5-min Rain = 0
KFR1 261051Z 22003KT 19/18 A2998 RMK A01 T01850177  RH  095%=      5-min Rain = 0
KFR1 261052Z 23003KT 18/18 A2998 RMK A01 T01840176  RH  095%=      5-min Rain = 0
KFR1 261053Z 24003KT 18/18 A2998 RMK A01 T01840175  RH  095%=      5-min Rain = 0
KFR1 261054Z 24004KT 18/18 A2998 RMK A01 T01830176  RH  095%=      5-min Rain = 0
KFR1 261055Z 25003KT 18/18 A2998 RMK A01 T01830176  RH  095%=      5-min Rain = 0
KFR1 261056Z 24004KT 18/18 A2998 RMK A01 T01830175  RH  095%=      5-min Rain = 0
KFR1 261057Z 24004KT 18/18 A2998 RMK A01 T01830176  RH  095%=      5-min Rain = 0
KFR1 261058Z 24004KT 18/18 A2998 RMK A01 T01830175  RH  095%=      5-min Rain = 0
KFR1 261059Z 23003KT 18/18 A2998 RMK A01 T01830176  RH  096%=      5-min Rain = 0
KFR1 261100Z 23004KT 18/18 A2998 RMK A01 T01830175  RH  095%=      5-min Rain = 0
KFR1 261101Z 22004KT 18/18 A2998 RMK A01 T01820175  RH  095%=      5-min Rain = 0
KFR1 261102Z 22004KT 18/18 A2998 RMK A01 T01820175  RH  096%=      5-min Rain = 0
KFR1 261103Z 22004KT 18/18 A2998 RMK A01 T01820175  RH  096%=      5-min Rain = 0
KFR1 261104Z 21004KT 18/18 A2998 RMK A01 T01820175  RH  096%=      5-min Rain = 0
KFR1 261105Z 21004KT 18/18 A2998 RMK A01 T01820175  RH  096%=      5-min Rain = 0
KFR1 261106Z 21004KT 18/18 A2998 RMK A01 T01830176  RH  096%=      5-min Rain = 0
KFR1 261107Z 21004KT 18/18 A2998 RMK A01 T01830176  RH  096%=      5-min Rain = 0
KFR1 261108Z 21004KT 18/18 A2998 RMK A01 T01830176  RH  096%=      5-min Rain = 0
KFR1 261109Z 21004KT 18/18 A2998 RMK A01 T01830176  RH  095%=      5-min Rain = 0
KFR1 261110Z 20004KT 18/18 A2998 RMK A01 T01830176  RH  095%=      5-min Rain = 0
KFR1 261111Z 20004KT 18/18 A2998 RMK A01 T01830175  RH  095%=      5-min Rain = 0
KFR1 261112Z 21003KT 18/18 A2998 RMK A01 T01830175  RH  095%=      5-min Rain = 0
KFR1 261113Z 21003KT 18/18 A2999 RMK A01 T01820175  RH  095%=      5-min Rain = 0
KFR1 261114Z 22003KT 18/18 A2999 RMK A01 T01820175  RH  095%=      5-min Rain = 0
KFR1 261115Z 22003KT 18/18 A2999 RMK A01 T01820175  RH  096%=      5-min Rain = 0
KFR1 261116Z 22003KT 18/18 A2999 RMK A01 T01820175  RH  095%=      5-min Rain = 0
KFR1 261117Z 21003KT 18/17 A2999 RMK A01 T01820174  RH  096%=      5-min Rain = 0
KFR1 261118Z 22003KT 18/17 A2999 RMK A01 T01810174  RH  096%=      5-min Rain = 0
KFR1 261119Z 22002KT 18/17 A2999 RMK A01 T01810174  RH  096%=      5-min Rain = 0
KFR1 261120Z 22003KT 18/17 A2999 RMK A01 T01810174  RH  096%=      5-min Rain = 0
KFR1 261121Z 23002KT 18/17 A2999 RMK A01 T01810174  RH  096%=      5-min Rain = 0
KFR1 261122Z 22002KT 18/18 A2999 RMK A01 T01810175  RH  096%=      5-min Rain = 0
KFR1 261123Z 23002KT 18/18 A2999 RMK A01 T01810175  RH  096%=      5-min Rain = 0.01
KFR1 261124Z 23002KT 18/17 A2999 RMK A01 T01800174  RH  096%=      5-min Rain = 0
KFR1 261125Z 23003KT 18/18 A2999 RMK A01 T01800175  RH  096%=      5-min Rain = 0
KFR1 261126Z 22003KT 18/18 A2999 RMK A01 T01800175  RH  096%=      5-min Rain = 0
KFR1 261127Z 22003KT 18/18 A2999 RMK A01 T01800175  RH  096%=      5-min Rain = 0
KFR1 261128Z 22003KT 18/18 A2999 RMK A01 T01800175  RH  096%=      5-min Rain = 0
KFR1 261129Z 22003KT 18/18 A2999 RMK A01 T01800175  RH  097%=      5-min Rain = 0
KFR1 261130Z 21003KT 18/18 A2999 RMK A01 T01810175  RH  096%=      5-min Rain = 0
KFR1 261131Z 21003KT 18/18 A2999 RMK A01 T01800175  RH  096%=      5-min Rain = 0
KFR1 261132Z 21003KT 18/18 A2999 RMK A01 T01810175  RH  096%=      5-min Rain = 0
KFR1 261133Z 21003KT 18/18 A2999 RMK A01 T01810175  RH  096%=      5-min Rain = 0
KFR1 261134Z 20003KT 18/18 A2999 RMK A01 T01800175  RH  096%=      5-min Rain = 0
KFR1 261135Z 21003KT 18/18 A2999 RMK A01 T01810175  RH  096%=      5-min Rain = 0
KFR1 261136Z 20003KT 18/18 A2999 RMK A01 T01810175  RH  096%=      5-min Rain = 0
KFR1 261137Z 20003KT 18/18 A30 RMK A01 T01810175  RH  096%=      5-min Rain = 0
KFR1 261138Z 21004KT 18/18 A30 RMK A01 T01810175  RH  096%=      5-min Rain = 0
KFR1 261139Z 21004KT 18/18 A30 RMK A01 T01810175  RH  096%=      5-min Rain = 0
KFR1 261140Z 20005KT 18/18 A30 RMK A01 T01810175  RH  096%=      5-min Rain = 0
KFR1 261141Z 20004KT 18/18 A30 RMK A01 T01820176  RH  096%=      5-min Rain = 0
KFR1 261142Z 20004KT 18/18 A30 RMK A01 T01820176  RH  096%=      5-min Rain = 0
KFR1 261143Z 20004KT 18/18 A30 RMK A01 T01820176  RH  096%=      5-min Rain = 0
KFR1 261144Z 20004KT 18/18 A30 RMK A01 T01820175  RH  096%=      5-min Rain = 0
KFR1 261145Z 20005KT 18/18 A30 RMK A01 T01820176  RH  096%=      5-min Rain = 0
KFR1 261146Z 19006KT 18/18 A30 RMK A01 T01820176  RH  096%=      5-min Rain = 0
KFR1 261147Z 19006KT 18/18 A30 RMK A01 T01830176  RH  096%=      5-min Rain = 0
KFR1 261148Z 21005KT 18/18 A30 RMK A01 T01830176  RH  096%=      5-min Rain = 0
KFR1 261149Z 20004KT 18/18 A30 RMK A01 T01830176  RH  096%=      5-min Rain = 0
KFR1 261150Z 20005KT 18/18 A30 RMK A01 T01830176  RH  096%=      5-min Rain = 0
KFR1 261151Z 20004KT 18/18 A30 RMK A01 T01830176  RH  096%=      5-min Rain = 0
KFR1 261152Z 20005KT 18/18 A30 RMK A01 T01830176  RH  096%=      5-min Rain = 0
KFR1 261153Z 21004KT 18/18 A30 RMK A01 T01840177  RH  096%=      5-min Rain = 0
KFR1 261154Z 21004KT 18/18 A30 RMK A01 T01840177  RH  096%=      5-min Rain = 0
KFR1 261155Z 20004KT 18/18 A30 RMK A01 T01840177  RH  096%=      5-min Rain = 0
KFR1 261156Z 20005KT 18/18 A30 RMK A01 T01840177  RH  096%=      5-min Rain = 0
KFR1 261157Z 21005KT 19/18 A30 RMK A01 T01850177  RH  096%=      5-min Rain = 0
KFR1 261158Z 20005KT 19/18 A30 RMK A01 T01850178  RH  096%=      5-min Rain = 0
KFR1 261159Z 19005KT 19/18 A30 RMK A01 T01850178  RH  096%=      5-min Rain = 0
KFR1 261200Z 20004KT 19/18 A30 RMK A01 T01850178  RH  096%=      5-min Rain = 0
KFR1 261201Z 20006KT 19/18 A30 RMK A01 T01860178  RH  096%=      5-min Rain = 0
KFR1 261202Z 20007KT 19/18 A30 RMK A01 T01850178  RH  095%=      5-min Rain = 0
KFR1 261203Z 20006KT 19/18 A30 RMK A01 T01860178  RH  095%=      5-min Rain = 0
KFR1 261204Z 20006KT 19/18 A30 RMK A01 T01860179  RH  095%=      5-min Rain = 0
KFR1 261205Z 20006KT 19/18 A30 RMK A01 T01860179  RH  095%=      5-min Rain = 0
KFR1 261206Z 20005KT 19/18 A30 RMK A01 T01860179  RH  095%=      5-min Rain = 0
KFR1 261207Z 20006KT 19/18 A30 RMK A01 T01860179  RH  095%=      5-min Rain = 0
KFR1 261208Z 20006KT 19/18 A30 RMK A01 T01860179  RH  095%=      5-min Rain = 0
KFR1 261209Z 20005KT 19/18 A30 RMK A01 T01870179  RH  095%=      5-min Rain = 0
KFR1 261210Z 21006KT 19/18 A30 RMK A01 T01870180  RH  095%=      5-min Rain = 0
KFR1 261211Z 21006KT 19/18 A30 RMK A01 T01870180  RH  095%=      5-min Rain = 0
KFR1 261212Z 21005KT 19/18 A30 RMK A01 T01870180  RH  095%=      5-min Rain = 0
KFR1 261213Z 21006KT 19/18 A30 RMK A01 T01870180  RH  095%=      5-min Rain = 0
KFR1 261214Z 21004KT 19/18 A30 RMK A01 T01870180  RH  095%=      5-min Rain = 0
KFR1 261215Z 22005KT 19/18 A30 RMK A01 T01880180  RH  095%=      5-min Rain = 0
KFR1 261216Z 23005KT 19/18 A30 RMK A01 T01880180  RH  095%=      5-min Rain = 0
KFR1 261217Z 22005KT 19/18 A30 RMK A01 T01880180  RH  095%=      5-min Rain = 0
KFR1 261218Z 22004KT 19/18 A30 RMK A01 T01880180  RH  095%=      5-min Rain = 0
KFR1 261219Z 21006KT 19/18 A30 RMK A01 T01890181  RH  095%=      5-min Rain = 0
KFR1 261220Z 22006KT 19/18 A30 RMK A01 T01880180  RH  095%=      5-min Rain = 0
KFR1 261221Z 21006KT 19/18 A30 RMK A01 T01890180  RH  095%=      5-min Rain = 0
KFR1 261222Z 21006KT 19/18 A30 RMK A01 T01890180  RH  095%=      5-min Rain = 0
KFR1 261223Z 21006KT 19/18 A3001 RMK A01 T01890180  RH  095%=      5-min Rain = 0
KFR1 261224Z 21005KT 19/18 A3001 RMK A01 T01890180  RH  095%=      5-min Rain = 0
KFR1 261225Z 20006KT 19/18 A3001 RMK A01 T01890180  RH  095%=      5-min Rain = 0
KFR1 261226Z 21005KT 19/18 A3001 RMK A01 T01890180  RH  094%=      5-min Rain = 0
KFR1 261227Z 20005KT 19/18 A3001 RMK A01 T01900181  RH  094%=      5-min Rain = 0
KFR1 261228Z 20007KT 19/18 A3001 RMK A01 T01900181  RH  094%=      5-min Rain = 0
KFR1 261229Z 20005KT 19/18 A3001 RMK A01 T01900181  RH  094%=      5-min Rain = 0
KFR1 261230Z 20005KT 19/18 A30 RMK A01 T01900181  RH  095%=      5-min Rain = 0
KFR1 261231Z 21006KT 19/18 A30 RMK A01 T01900181  RH  095%=      5-min Rain = 0
KFR1 261232Z 20006KT 19/18 A30 RMK A01 T01900181  RH  094%=      5-min Rain = 0
KFR1 261233Z 20006KT 19/18 A30 RMK A01 T01900181  RH  094%=      5-min Rain = 0
KFR1 261234Z 19005KT 19/18 A30 RMK A01 T01900181  RH  094%=      5-min Rain = 0
KFR1 261235Z 19005KT 19/18 A30 RMK A01 T01900181  RH  094%=      5-min Rain = 0
KFR1 261236Z 20006KT 19/18 A30 RMK A01 T01900181  RH  094%=      5-min Rain = 0
KFR1 261237Z 20005KT 19/18 A30 RMK A01 T01900180  RH  094%=      5-min Rain = 0
KFR1 261238Z 19008KT 19/18 A30 RMK A01 T01910181  RH  094%=      5-min Rain = 0
KFR1 261239Z 20006KT 19/18 A30 RMK A01 T01910181  RH  094%=      5-min Rain = 0
KFR1 261240Z 18005KT 19/18 A30 RMK A01 T01910181  RH  094%=      5-min Rain = 0
KFR1 261241Z 19005KT 19/18 A30 RMK A01 T01910181  RH  094%=      5-min Rain = 0
KFR1 261242Z 19004KT 19/18 A30 RMK A01 T01910180  RH  094%=      5-min Rain = 0
KFR1 261243Z 18003KT 19/18 A30 RMK A01 T01910180  RH  094%=      5-min Rain = 0
KFR1 261244Z 20006KT 19/18 A30 RMK A01 T01910180  RH  094%=      5-min Rain = 0
KFR1 261245Z 20005KT 19/18 A30 RMK A01 T01910181  RH  094%=      5-min Rain = 0
KFR1 261246Z 19005KT 19/18 A30 RMK A01 T01910181  RH  094%=      5-min Rain = 0
KFR1 261247Z 19003KT 19/18 A30 RMK A01 T01910181  RH  094%=      5-min Rain = 0
KFR1 261248Z 20003KT 19/18 A30 RMK A01 T01910181  RH  094%=      5-min Rain = 0
KFR1 261249Z 19003KT 19/18 A30 RMK A01 T01910181  RH  094%=      5-min Rain = 0
KFR1 261250Z 18004KT 19/18 A30 RMK A01 T01910181  RH  094%=      5-min Rain = 0
KFR1 261251Z 19005KT 19/18 A30 RMK A01 T01910181  RH  094%=      5-min Rain = 0
KFR1 261252Z 18005KT 19/18 A30 RMK A01 T01920182  RH  094%=      5-min Rain = 0
KFR1 261253Z 18004KT 19/18 A30 RMK A01 T01910181  RH  094%=      5-min Rain = 0
KFR1 261254Z 18004KT 19/18 A30 RMK A01 T01910181  RH  094%=      5-min Rain = 0
KFR1 261255Z 18004KT 19/18 A30 RMK A01 T01920182  RH  094%=      5-min Rain = 0
KFR1 261256Z 18003KT 19/18 A30 RMK A01 T01920182  RH  094%=      5-min Rain = 0
KFR1 261257Z 17003KT 19/18 A30 RMK A01 T01920182  RH  094%=      5-min Rain = 0
KFR1 261258Z 16004KT 19/18 A30 RMK A01 T01920182  RH  094%=      5-min Rain = 0
KFR1 261259Z 18005KT 19/18 A30 RMK A01 T01920182  RH  094%=      5-min Rain = 0
KFR1 261300Z 16003KT 19/18 A30 RMK A01 T01920182  RH  094%=      5-min Rain = 0
KFR1 261301Z 17004KT 19/18 A30 RMK A01 T01920181  RH  094%=      5-min Rain = 0
KFR1 261302Z 16004KT 19/18 A30 RMK A01 T01920182  RH  094%=      5-min Rain = 0
KFR1 261303Z 17003KT 19/18 A30 RMK A01 T01920182  RH  094%=      5-min Rain = 0
KFR1 261304Z 16004KT 19/18 A30 RMK A01 T01920182  RH  094%=      5-min Rain = 0
KFR1 261305Z 17006KT 19/18 A30 RMK A01 T01920182  RH  094%=      5-min Rain = 0
KFR1 261306Z 17007KT 19/18 A30 RMK A01 T01920182  RH  094%=      5-min Rain = 0
KFR1 261307Z 17006KT 19/18 A30 RMK A01 T01930183  RH  094%=      5-min Rain = 0
KFR1 261308Z 17005KT 19/18 A30 RMK A01 T01930183  RH  094%=      5-min Rain = 0
KFR1 261309Z 17007KT 19/18 A30 RMK A01 T01940184  RH  094%=      5-min Rain = 0
KFR1 261310Z 18007KT 19/18 A30 RMK A01 T01940183  RH  094%=      5-min Rain = 0
KFR1 261311Z 18008KT 19/18 A30 RMK A01 T01940183  RH  093%=      5-min Rain = 0
KFR1 261312Z 17008KT 19/18 A30 RMK A01 T01940183  RH  093%=      5-min Rain = 0
KFR1 261313Z 18009KT 20/18 A30 RMK A01 T01950184  RH  093%=      5-min Rain = 0
KFR1 261314Z 18008KT 20/18 A30 RMK A01 T01950184  RH  093%=      5-min Rain = 0
KFR1 261315Z 18008KT 20/18 A30 RMK A01 T01960184  RH  093%=      5-min Rain = 0
KFR1 261316Z 18009KT 20/19 A30 RMK A01 T01960185  RH  093%=      5-min Rain = 0
KFR1 261317Z 18008KT 20/18 A30 RMK A01 T01970184  RH  093%=      5-min Rain = 0
KFR1 261318Z 18008KT 20/19 A30 RMK A01 T01970185  RH  093%=      5-min Rain = 0
KFR1 261319Z 17008KT 20/19 A30 RMK A01 T01970185  RH  093%=      5-min Rain = 0
KFR1 261320Z 17008KT 20/19 A30 RMK A01 T01970185  RH  092%=      5-min Rain = 0
KFR1 261321Z 18008KT 20/19 A30 RMK A01 T01980185  RH  092%=      5-min Rain = 0
KFR1 261322Z 17008KT 20/19 A30 RMK A01 T01980185  RH  092%=      5-min Rain = 0
KFR1 261323Z 17008KT 20/19 A30 RMK A01 T01980185  RH  092%=      5-min Rain = 0
KFR1 261324Z 17006KT 20/19 A30 RMK A01 T01980185  RH  092%=      5-min Rain = 0
KFR1 261325Z 17007KT 20/19 A30 RMK A01 T01990186  RH  092%=      5-min Rain = 0
KFR1 261326Z 17007KT 20/19 A30 RMK A01 T01990186  RH  092%=      5-min Rain = 0
KFR1 261327Z 16006KT 20/19 A30 RMK A01 T01990186  RH  092%=      5-min Rain = 0
KFR1 261328Z 17006KT 20/19 A30 RMK A01 T01990186  RH  092%=      5-min Rain = 0
KFR1 261329Z 17007KT 20/19 A30 RMK A01 T02000187  RH  092%=      5-min Rain = 0
KFR1 261330Z 17006KT 20/19 A30 RMK A01 T02000186  RH  092%=      5-min Rain = 0
KFR1 261331Z 16005KT 20/19 A30 RMK A01 T02000186  RH  092%=      5-min Rain = 0
KFR1 261332Z 16008KT 20/19 A30 RMK A01 T02000186  RH  091%=      5-min Rain = 0
KFR1 261333Z 16008KT 20/19 A30 RMK A01 T02010186  RH  091%=      5-min Rain = 0
KFR1 261334Z 16009KT 20/19 A30 RMK A01 T02010185  RH  091%=      5-min Rain = 0
KFR1 261335Z 17010KT 20/19 A30 RMK A01 T02010185  RH  090%=      5-min Rain = 0
KFR1 261336Z 17008KT 20/19 A30 RMK A01 T02010185  RH  091%=      5-min Rain = 0
KFR1 261337Z 18008KT 20/19 A30 RMK A01 T02010186  RH  091%=      5-min Rain = 0
KFR1 261338Z 18008KT 20/19 A30 RMK A01 T02020185  RH  090%=      5-min Rain = 0
KFR1 261339Z 18008KT 20/19 A30 RMK A01 T02020185  RH  090%=      5-min Rain = 0
KFR1 261340Z 17006KT 20/19 A3001 RMK A01 T02020185  RH  090%=      5-min Rain = 0
KFR1 261341Z 18006KT 20/19 A3001 RMK A01 T02020186  RH  090%=      5-min Rain = 0
KFR1 261342Z 17007KT 20/19 A3001 RMK A01 T02020186  RH  090%=      5-min Rain = 0
KFR1 261343Z 17005KT 20/19 A3001 RMK A01 T02030186  RH  090%=      5-min Rain = 0
KFR1 261344Z 18008KT 20/19 A3001 RMK A01 T02030187  RH  090%=      5-min Rain = 0
KFR1 261345Z 17009KT 20/19 A3001 RMK A01 T02030186  RH  090%=      5-min Rain = 0
KFR1 261346Z 17007KT 20/19 A3001 RMK A01 T02030186  RH  090%=      5-min Rain = 0
KFR1 261347Z 16007KT 20/19 A3001 RMK A01 T02030187  RH  090%=      5-min Rain = 0
KFR1 261348Z 17009KT 20/19 A3001 RMK A01 T02040186  RH  090%=      5-min Rain = 0
KFR1 261349Z 17008KT 20/19 A3001 RMK A01 T02030186  RH  090%=      5-min Rain = 0
KFR1 261350Z 17008KT 20/19 A3001 RMK A01 T02040187  RH  090%=      5-min Rain = 0
KFR1 261351Z 18009KT 20/19 A3001 RMK A01 T02040187  RH  090%=      5-min Rain = 0
KFR1 261352Z 17006KT 20/19 A3001 RMK A01 T02040187  RH  090%=      5-min Rain = 0
KFR1 261353Z 17006KT 20/19 A3001 RMK A01 T02040188  RH  091%=      5-min Rain = 0
KFR1 261354Z 16006KT 20/19 A3001 RMK A01 T02040188  RH  090%=      5-min Rain = 0
KFR1 261355Z 17006KT 21/19 A3001 RMK A01 T02050189  RH  090%=      5-min Rain = 0
KFR1 261356Z 17009KT 20/19 A3001 RMK A01 T02040187  RH  090%=      5-min Rain = 0
KFR1 261357Z 17008KT 21/19 A3001 RMK A01 T02050187  RH  090%=      5-min Rain = 0
KFR1 261358Z 17007KT 21/19 A3001 RMK A01 T02050187  RH  090%=      5-min Rain = 0
KFR1 261359Z 17007KT 21/19 A3001 RMK A01 T02050188  RH  090%=      5-min Rain = 0
KFR1 261400Z 17009KT 21/19 A3001 RMK A01 T02050188  RH  090%=      5-min Rain = 0
KFR1 261401Z 17009KT 21/19 A3001 RMK A01 T02050187  RH  090%=      5-min Rain = 0
KFR1 261402Z 17007KT 21/19 A3001 RMK A01 T02050187  RH  090%=      5-min Rain = 0
KFR1 261403Z 17006KT 21/19 A3001 RMK A01 T02050187  RH  090%=      5-min Rain = 0
KFR1 261404Z 17007KT 21/19 A3001 RMK A01 T02050188  RH  090%=      5-min Rain = 0
KFR1 261405Z 17008KT 21/19 A3001 RMK A01 T02050188  RH  090%=      5-min Rain = 0
KFR1 261406Z 17009KT 21/19 A3001 RMK A01 T02050187  RH  090%=      5-min Rain = 0
KFR1 261407Z 17011KT 21/19 A3001 RMK A01 T02060187  RH  089%=      5-min Rain = 0
KFR1 261408Z 17011KT 21/19 A3001 RMK A01 T02060187  RH  089%=      5-min Rain = 0
KFR1 261409Z 17008KT 21/19 A3001 RMK A01 T02050187  RH  089%=      5-min Rain = 0
KFR1 261410Z 17008KT 21/19 A3001 RMK A01 T02050187  RH  089%=      5-min Rain = 0
KFR1 261411Z 17008KT 21/19 A3001 RMK A01 T02060188  RH  089%=      5-min Rain = 0
KFR1 261412Z 18008KT 21/19 A3001 RMK A01 T02060188  RH  089%=      5-min Rain = 0
KFR1 261413Z 17008KT 21/19 A3001 RMK A01 T02060188  RH  089%=      5-min Rain = 0
KFR1 261414Z 18009KT 21/19 A3001 RMK A01 T02070188  RH  089%=      5-min Rain = 0
KFR1 261415Z 18011KT 21/19 A3001 RMK A01 T02070188  RH  089%=      5-min Rain = 0
KFR1 261416Z 17008KT 21/19 A3001 RMK A01 T02060187  RH  089%=      5-min Rain = 0
KFR1 261417Z 18009KT 21/19 A3002 RMK A01 T02060188  RH  089%=      5-min Rain = 0
KFR1 261418Z 18010KT 21/19 A3002 RMK A01 T02070188  RH  089%=      5-min Rain = 0
KFR1 261419Z 18009KT 21/19 A3002 RMK A01 T02070188  RH  089%=      5-min Rain = 0
KFR1 261420Z 19009KT 21/19 A3002 RMK A01 T02070188  RH  089%=      5-min Rain = 0
KFR1 261421Z 18010KT 21/19 A3002 RMK A01 T02070188  RH  089%=      5-min Rain = 0
KFR1 261422Z 18009KT 21/19 A3002 RMK A01 T02070187  RH  088%=      5-min Rain = 0
KFR1 261423Z 18008KT 21/19 A3002 RMK A01 T02070188  RH  089%=      5-min Rain = 0
KFR1 261424Z 19011KT 21/19 A3002 RMK A01 T02070187  RH  088%=      5-min Rain = 0
KFR1 261425Z 18010KT 21/19 A3002 RMK A01 T02070187  RH  088%=      5-min Rain = 0
KFR1 261426Z 19010KT 21/19 A3002 RMK A01 T02070187  RH  088%=      5-min Rain = 0
KFR1 261427Z 18007KT 21/19 A3001 RMK A01 T02070188  RH  088%=      5-min Rain = 0
KFR1 261428Z 18008KT 21/19 A3001 RMK A01 T02080189  RH  089%=      5-min Rain = 0
KFR1 261429Z 17009KT 21/19 A3001 RMK A01 T02080188  RH  088%=      5-min Rain = 0
KFR1 261430Z 18011KT 21/19 A3001 RMK A01 T02090188  RH  088%=      5-min Rain = 0
KFR1 261431Z 18009KT 21/19 A3001 RMK A01 T02090188  RH  088%=      5-min Rain = 0
KFR1 261432Z 18009KT 21/19 A3001 RMK A01 T02100189  RH  088%=      5-min Rain = 0
KFR1 261433Z 18010G15KT 21/19 A3001 RMK A01 T02100188  RH  087%=      5-min Rain = 0
KFR1 261434Z 18011KT 21/19 A3001 RMK A01 T02110188  RH  087%=      5-min Rain = 0
KFR1 261435Z 18009KT 21/19 A3001 RMK A01 T02110188  RH  087%=      5-min Rain = 0
KFR1 261436Z 18009KT 21/19 A3001 RMK A01 T02110189  RH  087%=      5-min Rain = 0
KFR1 261437Z 19008KT 21/19 A3001 RMK A01 T02120192  RH  088%=      5-min Rain = 0
KFR1 261438Z 19011KT 21/19 A3001 RMK A01 T02130190  RH  087%=      5-min Rain = 0
KFR1 261439Z 18010G15KT 21/19 A3001 RMK A01 T02130189  RH  086%=      5-min Rain = 0
KFR1 261440Z 17010G15KT 21/19 A3001 RMK A01 T02130189  RH  086%=      5-min Rain = 0
KFR1 261441Z 17012KT 21/19 A3001 RMK A01 T02140189  RH  086%=      5-min Rain = 0
KFR1 261442Z 18012KT 21/19 A3001 RMK A01 T02140188  RH  085%=      5-min Rain = 0
KFR1 261443Z 18009KT 21/19 A3001 RMK A01 T02140189  RH  086%=      5-min Rain = 0
KFR1 261444Z 18012KT 22/19 A3001 RMK A01 T02150190  RH  086%=      5-min Rain = 0
KFR1 261445Z 18012KT 22/19 A3001 RMK A01 T02150189  RH  085%=      5-min Rain = 0
KFR1 261446Z 18014KT 22/19 A3001 RMK A01 T02160189  RH  085%=      5-min Rain = 0
KFR1 261447Z 18012KT 22/19 A3001 RMK A01 T02160188  RH  084%=      5-min Rain = 0
KFR1 261448Z 19013KT 22/19 A3001 RMK A01 T02150188  RH  085%=      5-min Rain = 0
KFR1 261449Z 18010KT 22/19 A3001 RMK A01 T02160189  RH  084%=      5-min Rain = 0
KFR1 261450Z 19012G17KT 22/19 A3001 RMK A01 T02160189  RH  085%=      5-min Rain = 0
KFR1 261451Z 19013G18KT 22/19 A3001 RMK A01 T02160189  RH  084%=      5-min Rain = 0
KFR1 261452Z 18014KT 22/19 A3001 RMK A01 T02160188  RH  084%=      5-min Rain = 0
KFR1 261453Z 19012KT 22/19 A3001 RMK A01 T02160188  RH  084%=      5-min Rain = 0
KFR1 261454Z 19016KT 22/19 A3001 RMK A01 T02160188  RH  084%=      5-min Rain = 0
KFR1 261455Z 18012KT 22/19 A3001 RMK A01 T02160188  RH  084%=      5-min Rain = 0
KFR1 261456Z 19012KT 22/19 A3001 RMK A01 T02150188  RH  084%=      5-min Rain = 0
KFR1 261457Z 19014KT 22/19 A3001 RMK A01 T02160188  RH  084%=      5-min Rain = 0
KFR1 261458Z 19013KT 22/19 A3001 RMK A01 T02160188  RH  084%=      5-min Rain = 0
KFR1 261459Z 18013KT 22/19 A3002 RMK A01 T02160189  RH  085%=      5-min Rain = 0
KFR1 261500Z 18012KT 22/19 A3002 RMK A01 T02160189  RH  085%=      5-min Rain = 0
KFR1 261501Z 18013KT 22/19 A3002 RMK A01 T02160189  RH  084%=      5-min Rain = 0
KFR1 261502Z 19012KT 22/19 A3001 RMK A01 T02160189  RH  084%=      5-min Rain = 0
KFR1 261503Z 19011G16KT 22/19 A3002 RMK A01 T02170190  RH  085%=      5-min Rain = 0
KFR1 261504Z 19015KT 22/19 A3001 RMK A01 T02170189  RH  084%=      5-min Rain = 0
KFR1 261505Z 19012KT 22/19 A3002 RMK A01 T02170188  RH  084%=      5-min Rain = 0
KFR1 261506Z 18013KT 22/19 A3002 RMK A01 T02170189  RH  084%=      5-min Rain = 0
KFR1 261507Z 18014KT 22/19 A3002 RMK A01 T02170188  RH  084%=      5-min Rain = 0
KFR1 261508Z 19012KT 22/19 A3002 RMK A01 T02170188  RH  083%=      5-min Rain = 0
KFR1 261509Z 18013KT 22/19 A3002 RMK A01 T02170190  RH  084%=      5-min Rain = 0
KFR1 261510Z 18012KT 22/19 A3002 RMK A01 T02180189  RH  084%=      5-min Rain = 0
KFR1 261511Z 18012KT 22/19 A3002 RMK A01 T02170189  RH  084%=      5-min Rain = 0
KFR1 261512Z 18014KT 22/19 A3002 RMK A01 T02170188  RH  084%=      5-min Rain = 0
KFR1 261513Z 18015KT 22/19 A3002 RMK A01 T02180188  RH  083%=      5-min Rain = 0
KFR1 261514Z 19014KT 22/19 A3002 RMK A01 T02170188  RH  084%=      5-min Rain = 0
KFR1 261515Z 18013KT 22/19 A3002 RMK A01 T02170188  RH  084%=      5-min Rain = 0
KFR1 261516Z 18012G17KT 22/19 A3002 RMK A01 T02170188  RH  084%=      5-min Rain = 0
KFR1 261517Z 18016KT 22/19 A3001 RMK A01 T02170187  RH  083%=      5-min Rain = 0
KFR1 261518Z 19016KT 22/19 A3002 RMK A01 T02160187  RH  083%=      5-min Rain = 0
KFR1 261519Z 19012KT 22/19 A3002 RMK A01 T02160187  RH  084%=      5-min Rain = 0
KFR1 261520Z 19012KT 22/19 A3002 RMK A01 T02160188  RH  084%=      5-min Rain = 0
KFR1 261521Z 18010KT 22/19 A3002 RMK A01 T02160188  RH  084%=      5-min Rain = 0
KFR1 261522Z 18011KT 22/19 A3002 RMK A01 T02160189  RH  084%=      5-min Rain = 0
KFR1 261523Z 19009KT 22/19 A3002 RMK A01 T02160189  RH  085%=      5-min Rain = 0
KFR1 261524Z 19012KT 22/19 A3002 RMK A01 T02160188  RH  084%=      5-min Rain = 0
KFR1 261525Z 18012KT 22/19 A3002 RMK A01 T02160187  RH  084%=      5-min Rain = 0
KFR1 261526Z 19011KT 22/19 A3002 RMK A01 T02160189  RH  084%=      5-min Rain = 0
KFR1 261527Z 18011KT 22/19 A3002 RMK A01 T02170188  RH  084%=      5-min Rain = 0
KFR1 261528Z 19012KT 22/19 A3002 RMK A01 T02170189  RH  084%=      5-min Rain = 0
KFR1 261529Z 19012KT 22/19 A3002 RMK A01 T02170188  RH  084%=      5-min Rain = 0
KFR1 261530Z 18012KT 22/19 A3002 RMK A01 T02170188  RH  084%=      5-min Rain = 0
KFR1 261531Z 18012KT 22/19 A3002 RMK A01 T02160188  RH  084%=      5-min Rain = 0
KFR1 261532Z 18011KT 22/19 A3002 RMK A01 T02170189  RH  084%=      5-min Rain = 0
KFR1 261533Z 18012KT 22/19 A3002 RMK A01 T02160188  RH  084%=      5-min Rain = 0
KFR1 261534Z 18013KT 22/19 A3002 RMK A01 T02170188  RH  084%=      5-min Rain = 0
KFR1 261535Z 18015KT 22/19 A3001 RMK A01 T02170188  RH  084%=      5-min Rain = 0
KFR1 261536Z 17013KT 22/19 A3001 RMK A01 T02160187  RH  083%=      5-min Rain = 0
KFR1 261537Z 18012KT 22/19 A3001 RMK A01 T02170188  RH  084%=      5-min Rain = 0
KFR1 261538Z 18015KT 22/19 A3001 RMK A01 T02170187  RH  083%=      5-min Rain = 0
KFR1 261539Z 18014KT 22/19 A3001 RMK A01 T02170187  RH  083%=      5-min Rain = 0
KFR1 261540Z 18013KT 22/19 A3001 RMK A01 T02180187  RH  083%=      5-min Rain = 0
KFR1 261541Z 19014G19KT 22/19 A3001 RMK A01 T02180187  RH  083%=      5-min Rain = 0
KFR1 261542Z 18014KT 22/19 A3001 RMK A01 T02180187  RH  082%=      5-min Rain = 0
KFR1 261543Z 18014KT 22/19 A3001 RMK A01 T02190187  RH  082%=      5-min Rain = 0
KFR1 261544Z 18011KT 22/19 A3001 RMK A01 T02190187  RH  082%=      5-min Rain = 0
KFR1 261545Z 18011G16KT 22/19 A3001 RMK A01 T02190188  RH  083%=      5-min Rain = 0
KFR1 261546Z 18011KT 22/19 A3001 RMK A01 T02200189  RH  082%=      5-min Rain = 0
KFR1 261547Z 18014KT 22/19 A3001 RMK A01 T02210188  RH  082%=      5-min Rain = 0
KFR1 261548Z 18014KT 22/19 A3001 RMK A01 T02210188  RH  081%=      5-min Rain = 0
KFR1 261549Z 18014KT 22/19 A3001 RMK A01 T02220188  RH  081%=      5-min Rain = 0
KFR1 261550Z 18014KT 22/19 A3001 RMK A01 T02210187  RH  081%=      5-min Rain = 0
KFR1 261551Z 17009KT 22/19 A3001 RMK A01 T02220188  RH  082%=      5-min Rain = 0
KFR1 261552Z 17013KT 22/19 A3001 RMK A01 T02220189  RH  082%=      5-min Rain = 0
KFR1 261553Z 16013KT 22/19 A3001 RMK A01 T02220188  RH  081%=      5-min Rain = 0
KFR1 261554Z 17012KT 22/19 A30 RMK A01 T02220188  RH  081%=      5-min Rain = 0
KFR1 261555Z 16011KT 22/19 A30 RMK A01 T02220188  RH  081%=      5-min Rain = 0
KFR1 261556Z 17012KT 22/19 A30 RMK A01 T02220188  RH  081%=      5-min Rain = 0
KFR1 261557Z 17014KT 22/19 A30 RMK A01 T02230188  RH  080%=      5-min Rain = 0
KFR1 261558Z 18014KT 22/19 A30 RMK A01 T02230187  RH  080%=      5-min Rain = 0
KFR1 261559Z 17012KT 22/19 A30 RMK A01 T02230187  RH  080%=      5-min Rain = 0
KFR1 261600Z 17013G18KT 22/19 A30 RMK A01 T02220187  RH  081%=      5-min Rain = 0
KFR1 261601Z 17011KT 22/19 A30 RMK A01 T02230188  RH  081%=      5-min Rain = 0
KFR1 261602Z 17010KT 22/19 A30 RMK A01 T02220189  RH  081%=      5-min Rain = 0
KFR1 261603Z 16010KT 22/19 A30 RMK A01 T02230189  RH  081%=      5-min Rain = 0
KFR1 261604Z 17011KT 22/19 A2999 RMK A01 T02240188  RH  080%=      5-min Rain = 0
KFR1 261605Z 17014KT 22/19 A2999 RMK A01 T02240188  RH  080%=      5-min Rain = 0
KFR1 261606Z 17010G15KT 23/19 A2999 RMK A01 T02250187  RH  079%=      5-min Rain = 0
KFR1 261607Z 17010KT 22/19 A2999 RMK A01 T02240188  RH  080%=      5-min Rain = 0
KFR1 261608Z 16013KT 23/19 A2999 RMK A01 T02250188  RH  079%=      5-min Rain = 0
KFR1 261609Z 17013KT 23/19 A2999 RMK A01 T02250187  RH  079%=      5-min Rain = 0
KFR1 261610Z 18013KT 23/19 A2999 RMK A01 T02250187  RH  079%=      5-min Rain = 0
KFR1 261611Z 18011KT 23/19 A2999 RMK A01 T02260188  RH  079%=      5-min Rain = 0
KFR1 261612Z 17013KT 23/19 A30 RMK A01 T02270188  RH  079%=      5-min Rain = 0
KFR1 261613Z 18014KT 23/19 A30 RMK A01 T02270187  RH  079%=      5-min Rain = 0
KFR1 261614Z 18014KT 23/19 A30 RMK A01 T02260187  RH  079%=      5-min Rain = 0
KFR1 261615Z 17014KT 23/19 A30 RMK A01 T02250186  RH  079%=      5-min Rain = 0
KFR1 261616Z 17011KT 23/19 A30 RMK A01 T02250186  RH  079%=      5-min Rain = 0
KFR1 261617Z 18011KT 23/19 A30 RMK A01 T02250187  RH  079%=      5-min Rain = 0
KFR1 261618Z 18013KT 23/19 A30 RMK A01 T02250187  RH  079%=      5-min Rain = 0
KFR1 261619Z 18013KT 23/19 A30 RMK A01 T02260187  RH  079%=      5-min Rain = 0
KFR1 261620Z 17013KT 23/19 A30 RMK A01 T02260188  RH  079%=      5-min Rain = 0
KFR1 261621Z 17010KT 23/19 A30 RMK A01 T02260187  RH  079%=      5-min Rain = 0
KFR1 261622Z 18011KT 23/19 A30 RMK A01 T02260188  RH  079%=      5-min Rain = 0
KFR1 261623Z 17009KT 23/19 A30 RMK A01 T02260189  RH  079%=      5-min Rain = 0
KFR1 261624Z 18011KT 23/19 A30 RMK A01 T02260189  RH  079%=      5-min Rain = 0
KFR1 261625Z 17012G17KT 23/19 A30 RMK A01 T02270188  RH  079%=      5-min Rain = 0
KFR1 261626Z 18012KT 23/19 A30 RMK A01 T02260187  RH  079%=      5-min Rain = 0
KFR1 261627Z 17010KT 23/19 A30 RMK A01 T02250187  RH  079%=      5-min Rain = 0
KFR1 261628Z 17009G14KT 22/19 A30 RMK A01 T02240188  RH  080%=      5-min Rain = 0
KFR1 261629Z 17008KT 22/19 A30 RMK A01 T02240188  RH  080%=      5-min Rain = 0
KFR1 261630Z 18012KT 22/19 A30 RMK A01 T02240189  RH  080%=      5-min Rain = 0
KFR1 261631Z 17014KT 22/19 A30 RMK A01 T02240187  RH  080%=      5-min Rain = 0
KFR1 261632Z 17012KT 22/19 A30 RMK A01 T02240188  RH  080%=      5-min Rain = 0
KFR1 261633Z 18013KT 22/19 A30 RMK A01 T02230187  RH  080%=      5-min Rain = 0
KFR1 261634Z 17011KT 22/19 A30 RMK A01 T02230186  RH  079%=      5-min Rain = 0
KFR1 261635Z 16012KT 22/19 A30 RMK A01 T02230186  RH  080%=      5-min Rain = 0
KFR1 261636Z 18012KT 22/19 A30 RMK A01 T02220186  RH  080%=      5-min Rain = 0
KFR1 261637Z 18013KT 22/19 A30 RMK A01 T02230186  RH  080%=      5-min Rain = 0
KFR1 261638Z 18013KT 22/19 A30 RMK A01 T02230186  RH  080%=      5-min Rain = 0
KFR1 261639Z 19014KT 22/19 A30 RMK A01 T02220186  RH  080%=      5-min Rain = 0
KFR1 261640Z 18010KT 22/19 A30 RMK A01 T02220187  RH  080%=      5-min Rain = 0
KFR1 261641Z 18008KT 22/19 A30 RMK A01 T02230188  RH  081%=      5-min Rain = 0
KFR1 261642Z 18008KT 22/19 A30 RMK A01 T02230189  RH  081%=      5-min Rain = 0
KFR1 261643Z 17009KT 22/19 A30 RMK A01 T02220188  RH  081%=      5-min Rain = 0
KFR1 261644Z 17012KT 22/19 A30 RMK A01 T02220188  RH  081%=      5-min Rain = 0
KFR1 261645Z 18013KT 22/19 A30 RMK A01 T02220187  RH  080%=      5-min Rain = 0
KFR1 261646Z 18010G15KT 22/19 A30 RMK A01 T02220188  RH  081%=      5-min Rain = 0
KFR1 261647Z 19012KT 22/19 A30 RMK A01 T02220188  RH  081%=      5-min Rain = 0
KFR1 261648Z 18010KT 22/19 A30 RMK A01 T02220188  RH  081%=      5-min Rain = 0
KFR1 261649Z 17010KT 22/19 A30 RMK A01 T02210189  RH  082%=      5-min Rain = 0
KFR1 261650Z 18010KT 22/19 A30 RMK A01 T02210188  RH  082%=      5-min Rain = 0
KFR1 261651Z 17012KT 22/19 A30 RMK A01 T02210188  RH  082%=      5-min Rain = 0
KFR1 261652Z 19010KT 22/19 A30 RMK A01 T02210187  RH  081%=      5-min Rain = 0
KFR1 261653Z 19012KT 22/19 A30 RMK A01 T02210187  RH  081%=      5-min Rain = 0
KFR1 261654Z 18016KT 22/19 A30 RMK A01 T02210185  RH  080%=      5-min Rain = 0
KFR1 261655Z 18014KT 22/19 A30 RMK A01 T02210185  RH  080%=      5-min Rain = 0
KFR1 261656Z 18013KT 22/18 A30 RMK A01 T02210184  RH  080%=      5-min Rain = 0
KFR1 261657Z 19009KT 22/19 A30 RMK A01 T02210185  RH  080%=      5-min Rain = 0
KFR1 261658Z 19009KT 22/19 A30 RMK A01 T02220186  RH  081%=      5-min Rain = 0
KFR1 261659Z 20012KT 22/19 A30 RMK A01 T02220186  RH  080%=      5-min Rain = 0
KFR1 261700Z 19011KT 22/19 A30 RMK A01 T02220185  RH  079%=      5-min Rain = 0
KFR1 261701Z 19010KT 22/19 A30 RMK A01 T02220186  RH  080%=      5-min Rain = 0
KFR1 261702Z 19013KT 22/19 A30 RMK A01 T02220185  RH  079%=      5-min Rain = 0
KFR1 261703Z 19013KT 22/19 A30 RMK A01 T02220185  RH  079%=      5-min Rain = 0
KFR1 261704Z 19012KT 22/19 A30 RMK A01 T02220185  RH  079%=      5-min Rain = 0
KFR1 261705Z 19013KT 22/18 A30 RMK A01 T02220184  RH  079%=      5-min Rain = 0
KFR1 261706Z 19011KT 22/18 A30 RMK A01 T02220184  RH  079%=      5-min Rain = 0
KFR1 261707Z 18012KT 22/18 A30 RMK A01 T02220184  RH  079%=      5-min Rain = 0
KFR1 261708Z 18012KT 22/18 A30 RMK A01 T02220184  RH  079%=      5-min Rain = 0
KFR1 261709Z 18012KT 22/18 A30 RMK A01 T02220183  RH  079%=      5-min Rain = 0
KFR1 261710Z 19013KT 22/18 A30 RMK A01 T02220183  RH  078%=      5-min Rain = 0
KFR1 261711Z 18012KT 22/18 A30 RMK A01 T02220183  RH  079%=      5-min Rain = 0
KFR1 261712Z 19010KT 22/18 A30 RMK A01 T02220184  RH  079%=      5-min Rain = 0
KFR1 261713Z 19009KT 22/18 A30 RMK A01 T02210184  RH  079%=      5-min Rain = 0
KFR1 261714Z 18009KT 22/19 A30 RMK A01 T02210185  RH  080%=      5-min Rain = 0
KFR1 261715Z 19012KT 22/19 A30 RMK A01 T02210185  RH  080%=      5-min Rain = 0
KFR1 261716Z 19010KT 22/19 A30 RMK A01 T02210185  RH  080%=      5-min Rain = 0
KFR1 261717Z 19011KT 22/19 A30 RMK A01 T02210185  RH  080%=      5-min Rain = 0
KFR1 261718Z 18010KT 22/19 A30 RMK A01 T02210186  RH  080%=      5-min Rain = 0
KFR1 261719Z 18012KT 22/19 A30 RMK A01 T02220186  RH  080%=      5-min Rain = 0
KFR1 261720Z 18009KT 22/19 A30 RMK A01 T02220186  RH  080%=      5-min Rain = 0
KFR1 261721Z 18010KT 22/19 A30 RMK A01 T02220186  RH  080%=      5-min Rain = 0
KFR1 261722Z 19012KT 22/19 A30 RMK A01 T02220186  RH  080%=      5-min Rain = 0
KFR1 261723Z 18010KT 22/19 A30 RMK A01 T02220186  RH  080%=      5-min Rain = 0
KFR1 261724Z 18010KT 22/19 A30 RMK A01 T02220187  RH  081%=      5-min Rain = 0
KFR1 261725Z 18012KT 22/19 A30 RMK A01 T02220187  RH  081%=      5-min Rain = 0
KFR1 261726Z 18011KT 22/19 A30 RMK A01 T02220187  RH  081%=      5-min Rain = 0
KFR1 261727Z 18009KT 22/19 A30 RMK A01 T02220188  RH  081%=      5-min Rain = 0
KFR1 261728Z 17009KT 22/19 A2999 RMK A01 T02220188  RH  081%=      5-min Rain = 0
KFR1 261729Z 18009KT 22/19 A2999 RMK A01 T02220187  RH  080%=      5-min Rain = 0
KFR1 261730Z 18010KT 22/19 A2999 RMK A01 T02230187  RH  081%=      5-min Rain = 0
KFR1 261731Z 18009KT 22/19 A2999 RMK A01 T02230187  RH  080%=      5-min Rain = 0
KFR1 261732Z 18010KT 22/19 A2999 RMK A01 T02240188  RH  080%=      5-min Rain = 0
KFR1 261733Z 17009KT 22/19 A30 RMK A01 T02240188  RH  080%=      5-min Rain = 0
KFR1 261734Z 18011KT 23/19 A30 RMK A01 T02250188  RH  080%=      5-min Rain = 0
KFR1 261735Z 18010KT 23/19 A30 RMK A01 T02250187  RH  079%=      5-min Rain = 0
KFR1 261736Z 18010KT 23/19 A30 RMK A01 T02260189  RH  080%=      5-min Rain = 0
KFR1 261737Z 19009KT 23/19 A30 RMK A01 T02270189  RH  079%=      5-min Rain = 0
KFR1 261738Z 19011KT 23/19 A30 RMK A01 T02270188  RH  079%=      5-min Rain = 0
KFR1 261739Z 19013KT 23/19 A2999 RMK A01 T02270187  RH  078%=      5-min Rain = 0
KFR1 261740Z 19013KT 23/19 A30 RMK A01 T02260186  RH  078%=      5-min Rain = 0
KFR1 261741Z 18011KT 23/19 A2999 RMK A01 T02250186  RH  079%=      5-min Rain = 0
KFR1 261742Z 18009KT 23/19 A30 RMK A01 T02250187  RH  079%=      5-min Rain = 0
KFR1 261743Z 19014KT 23/19 A2999 RMK A01 T02250188  RH  080%=      5-min Rain = 0
KFR1 261744Z 18013KT 22/19 A2999 RMK A01 T02240187  RH  079%=      5-min Rain = 0
KFR1 261745Z 18013KT 22/19 A2999 RMK A01 T02230186  RH  079%=      5-min Rain = 0
KFR1 261746Z 18012KT 22/19 A2999 RMK A01 T02230187  RH  080%=      5-min Rain = 0
KFR1 261747Z 17013KT 22/19 A2999 RMK A01 T02230187  RH  080%=      5-min Rain = 0
KFR1 261748Z 17011KT 22/19 A2999 RMK A01 T02220187  RH  080%=      5-min Rain = 0
KFR1 261749Z 17014KT 22/19 A2999 RMK A01 T02220187  RH  081%=      5-min Rain = 0
KFR1 261750Z 17014KT 22/19 A2999 RMK A01 T02210186  RH  081%=      5-min Rain = 0
KFR1 261751Z 18013KT 22/19 A2999 RMK A01 T02210187  RH  081%=      5-min Rain = 0
KFR1 261752Z 18014KT 22/19 A2999 RMK A01 T02210187  RH  081%=      5-min Rain = 0
KFR1 261753Z 18014KT 22/19 A2999 RMK A01 T02200186  RH  081%=      5-min Rain = 0
KFR1 261754Z 18011KT 22/19 A2999 RMK A01 T02190187  RH  082%=      5-min Rain = 0
KFR1 261755Z 19012KT 22/19 A2999 RMK A01 T02190187  RH  082%=      5-min Rain = 0
KFR1 261756Z 19014KT 22/19 A2999 RMK A01 T02190187  RH  082%=      5-min Rain = 0
KFR1 261757Z 19011KT 22/19 A2999 RMK A01 T02180187  RH  082%=      5-min Rain = 0
KFR1 261758Z 18011KT 22/19 A2999 RMK A01 T02180187  RH  082%=      5-min Rain = 0
KFR1 261759Z 18013KT 22/19 A2999 RMK A01 T02180187  RH  082%=      5-min Rain = 0
KFR1 261800Z 18012KT 22/19 A2999 RMK A01 T02180187  RH  082%=      5-min Rain = 0
KFR1 261801Z 18014KT 22/19 A2999 RMK A01 T02180187  RH  082%=      5-min Rain = 0
KFR1 261802Z 19011KT 22/19 A2999 RMK A01 T02190187  RH  082%=      5-min Rain = 0
KFR1 261803Z 18009KT 22/19 A2999 RMK A01 T02180188  RH  083%=      5-min Rain = 0
KFR1 261804Z 19010KT 22/19 A2999 RMK A01 T02190188  RH  083%=      5-min Rain = 0
KFR1 261805Z 17009KT 22/19 A2999 RMK A01 T02190188  RH  083%=      5-min Rain = 0
KFR1 261806Z 18013KT 22/19 A2999 RMK A01 T02190188  RH  082%=      5-min Rain = 0
KFR1 261807Z 18011KT 22/19 A2999 RMK A01 T02190187  RH  082%=      5-min Rain = 0
KFR1 261808Z 18009KT 22/19 A2999 RMK A01 T02200188  RH  082%=      5-min Rain = 0
KFR1 261809Z 19010KT 22/19 A2999 RMK A01 T02200187  RH  082%=      5-min Rain = 0
KFR1 261810Z 18009KT 22/19 A2999 RMK A01 T02210188  RH  082%=      5-min Rain = 0
KFR1 261811Z 19011KT 22/19 A2999 RMK A01 T02210187  RH  081%=      5-min Rain = 0
KFR1 261812Z 18011KT 22/19 A2999 RMK A01 T02210188  RH  081%=      5-min Rain = 0
KFR1 261813Z 19010KT 22/19 A2999 RMK A01 T02210188  RH  082%=      5-min Rain = 0
KFR1 261814Z 19012KT 22/19 A2999 RMK A01 T02210188  RH  082%=      5-min Rain = 0
KFR1 261815Z 19014KT 22/19 A2998 RMK A01 T02210188  RH  082%=      5-min Rain = 0
KFR1 261816Z 19012KT 22/19 A2998 RMK A01 T02200188  RH  082%=      5-min Rain = 0
KFR1 261817Z 19013G18KT 22/19 A2998 RMK A01 T02190188  RH  083%=      5-min Rain = 0
KFR1 261818Z 18012KT 22/19 A2998 RMK A01 T02180189  RH  083%=      5-min Rain = 0
KFR1 261819Z 19011KT 22/19 A2998 RMK A01 T02180189  RH  084%=      5-min Rain = 0
KFR1 261820Z 18011KT 22/19 A2998 RMK A01 T02180189  RH  083%=      5-min Rain = 0
KFR1 261821Z 19010KT 22/19 A2998 RMK A01 T02180188  RH  083%=      5-min Rain = 0
KFR1 261822Z 19012KT 22/19 A2998 RMK A01 T02180188  RH  083%=      5-min Rain = 0
KFR1 261823Z 18013KT 22/19 A2998 RMK A01 T02190187  RH  082%=      5-min Rain = 0
KFR1 261824Z 18013KT 22/19 A2998 RMK A01 T02190186  RH  082%=      5-min Rain = 0
KFR1 261825Z 18012KT 22/19 A2998 RMK A01 T02190186  RH  081%=      5-min Rain = 0
KFR1 261826Z 18010KT 22/19 A2998 RMK A01 T02200188  RH  082%=      5-min Rain = 0
KFR1 261827Z 19009KT 22/19 A2998 RMK A01 T02200187  RH  082%=      5-min Rain = 0
KFR1 261828Z 19012KT 22/19 A2998 RMK A01 T02210187  RH  081%=      5-min Rain = 0
KFR1 261829Z 19012KT 22/19 A2998 RMK A01 T02210186  RH  081%=      5-min Rain = 0
KFR1 261830Z 19013KT 22/19 A2998 RMK A01 T02220187  RH  081%=      5-min Rain = 0
KFR1 261831Z 18013KT 22/19 A2998 RMK A01 T02220187  RH  080%=      5-min Rain = 0
KFR1 261832Z 19015KT 22/19 A2998 RMK A01 T02230187  RH  080%=      5-min Rain = 0
KFR1 261833Z 18012KT 22/19 A2997 RMK A01 T02230187  RH  080%=      5-min Rain = 0
KFR1 261834Z 18010G16KT 22/19 A2998 RMK A01 T02240189  RH  080%=      5-min Rain = 0
KFR1 261835Z 19015KT 22/19 A2997 RMK A01 T02240188  RH  080%=      5-min Rain = 0
KFR1 261836Z 18018KT 22/19 A2997 RMK A01 T02240186  RH  079%=      5-min Rain = 0
KFR1 261837Z 19013KT 22/19 A2997 RMK A01 T02240187  RH  080%=      5-min Rain = 0
KFR1 261838Z 18014KT 22/19 A2997 RMK A01 T02230187  RH  080%=      5-min Rain = 0
KFR1 261839Z 19013KT 22/19 A2997 RMK A01 T02240188  RH  080%=      5-min Rain = 0
KFR1 261840Z 19014G19KT 22/19 A2997 RMK A01 T02230187  RH  080%=      5-min Rain = 0
KFR1 261841Z 18015KT 22/19 A2997 RMK A01 T02220188  RH  081%=      5-min Rain = 0
KFR1 261842Z 18013KT 22/19 A2997 RMK A01 T02230189  RH  081%=      5-min Rain = 0
KFR1 261843Z 18010KT 22/19 A2997 RMK A01 T02220189  RH  082%=      5-min Rain = 0
KFR1 261844Z 16014KT 22/19 A2997 RMK A01 T02230189  RH  081%=      5-min Rain = 0
KFR1 261845Z 17013KT 22/19 A2997 RMK A01 T02230189  RH  081%=      5-min Rain = 0
KFR1 261846Z 18012KT 22/19 A2997 RMK A01 T02230190  RH  082%=      5-min Rain = 0
KFR1 261847Z 17013KT 22/19 A2997 RMK A01 T02230190  RH  081%=      5-min Rain = 0
KFR1 261848Z 17013KT 22/19 A2997 RMK A01 T02240190  RH  081%=      5-min Rain = 0
KFR1 261849Z 17014KT 22/19 A2997 RMK A01 T02240189  RH  081%=      5-min Rain = 0
KFR1 261850Z 18014G19KT 22/19 A2997 RMK A01 T02230189  RH  081%=      5-min Rain = 0
KFR1 261851Z 17011KT 22/19 A2997 RMK A01 T02230190  RH  081%=      5-min Rain = 0
KFR1 261852Z 17012KT 22/19 A2997 RMK A01 T02230190  RH  081%=      5-min Rain = 0
KFR1 261853Z 17012KT 22/19 A2997 RMK A01 T02240190  RH  081%=      5-min Rain = 0
KFR1 261854Z 17016KT 22/19 A2997 RMK A01 T02240189  RH  081%=      5-min Rain = 0
KFR1 261855Z 17014KT 22/19 A2997 RMK A01 T02240189  RH  080%=      5-min Rain = 0
KFR1 261856Z 17014KT 22/19 A2997 RMK A01 T02230189  RH  081%=      5-min Rain = 0
KFR1 261857Z 17013KT 22/19 A2997 RMK A01 T02230189  RH  081%=      5-min Rain = 0
KFR1 261858Z 17014KT 22/19 A2997 RMK A01 T02230189  RH  081%=      5-min Rain = 0
KFR1 261859Z 16013KT 22/19 A2997 RMK A01 T02240189  RH  081%=      5-min Rain = 0
KFR1 261900Z 18011KT 22/19 A2997 RMK A01 T02240190  RH  081%=      5-min Rain = 0
KFR1 261901Z 17013KT 23/19 A2997 RMK A01 T02250190  RH  081%=      5-min Rain = 0
KFR1 261902Z 17012KT 23/19 A2996 RMK A01 T02260190  RH  080%=      5-min Rain = 0
KFR1 261903Z 17014KT 23/19 A2996 RMK A01 T02250189  RH  080%=      5-min Rain = 0
KFR1 261904Z 17015KT 23/19 A2996 RMK A01 T02260189  RH  080%=      5-min Rain = 0
KFR1 261905Z 18014KT 23/19 A2996 RMK A01 T02250188  RH  079%=      5-min Rain = 0
KFR1 261906Z 17013KT 23/19 A2996 RMK A01 T02250189  RH  080%=      5-min Rain = 0
KFR1 261907Z 17014KT 23/19 A2996 RMK A01 T02250188  RH  080%=      5-min Rain = 0
KFR1 261908Z 17013G18KT 23/19 A2996 RMK A01 T02250190  RH  080%=      5-min Rain = 0
KFR1 261909Z 16014KT 23/19 A2996 RMK A01 T02260190  RH  080%=      5-min Rain = 0
KFR1 261910Z 17013KT 23/19 A2996 RMK A01 T02260190  RH  080%=      5-min Rain = 0
KFR1 261911Z 16011KT 23/19 A2996 RMK A01 T02250190  RH  081%=      5-min Rain = 0
KFR1 261912Z 17013KT 23/19 A2996 RMK A01 T02250191  RH  081%=      5-min Rain = 0
KFR1 261913Z 18013G18KT 23/19 A2996 RMK A01 T02250190  RH  081%=      5-min Rain = 0
KFR1 261914Z 17013KT 23/19 A2996 RMK A01 T02250190  RH  081%=      5-min Rain = 0
KFR1 261915Z 18012G17KT 22/19 A2996 RMK A01 T02240190  RH  081%=      5-min Rain = 0
KFR1 261916Z 17010KT 22/19 A2996 RMK A01 T02240190  RH  081%=      5-min Rain = 0
KFR1 261917Z 16010KT 22/19 A2996 RMK A01 T02240191  RH  082%=      5-min Rain = 0
KFR1 261918Z 17011KT 22/19 A2996 RMK A01 T02240191  RH  082%=      5-min Rain = 0
KFR1 261919Z 16012KT 22/19 A2996 RMK A01 T02240190  RH  082%=      5-min Rain = 0
KFR1 261920Z 16015KT 22/19 A2996 RMK A01 T02230190  RH  081%=      5-min Rain = 0
KFR1 261921Z 16012KT 22/19 A2996 RMK A01 T02220189  RH  082%=      5-min Rain = 0
KFR1 261922Z 15010KT 22/19 A2996 RMK A01 T02200190  RH  083%=      5-min Rain = 0
KFR1 261923Z 16011KT 22/19 A2996 RMK A01 T02190190  RH  084%=      5-min Rain = 0
KFR1 261924Z 16011KT 22/19 A2996 RMK A01 T02170190  RH  085%=      5-min Rain = 0
KFR1 261925Z 16012KT 22/19 A2996 RMK A01 T02170191  RH  085%=      5-min Rain = 0
KFR1 261926Z 16011KT 22/19 A2996 RMK A01 T02160191  RH  086%=      5-min Rain = 0
KFR1 261927Z 15011G17KT 22/19 A2996 RMK A01 T02150191  RH  086%=      5-min Rain = 0
KFR1 261928Z 16011KT 22/19 A2996 RMK A01 T02150190  RH  086%=      5-min Rain = 0
KFR1 261929Z 16011KT 21/19 A2996 RMK A01 T02140190  RH  086%=      5-min Rain = 0
KFR1 261930Z 15013KT 21/19 A2996 RMK A01 T02130190  RH  086%=      5-min Rain = 0
KFR1 261931Z 16013KT 21/19 A2996 RMK A01 T02130189  RH  087%=      5-min Rain = 0
KFR1 261932Z 15011KT 21/19 A2996 RMK A01 T02120189  RH  087%=      5-min Rain = 0
KFR1 261933Z 15012KT 21/19 A2996 RMK A01 T02120189  RH  087%=      5-min Rain = 0
KFR1 261934Z 15008KT 21/19 A2996 RMK A01 T02120189  RH  087%=      5-min Rain = 0
KFR1 261935Z 15009G14KT 21/19 A2996 RMK A01 T02110189  RH  087%=      5-min Rain = 0
KFR1 261936Z 15007G13KT 21/19 A2997 RMK A01 T02110190  RH  088%=      5-min Rain = 0
KFR1 261937Z 16011G16KT 21/19 A2997 RMK A01 T02110190  RH  088%=      5-min Rain = 0
KFR1 261938Z 16011G17KT 21/19 A2997 RMK A01 T02100190  RH  088%=      5-min Rain = 0
KFR1 261939Z 16015KT 21/19 A2997 RMK A01 T02090190  RH  089%=      5-min Rain = 0
KFR1 261940Z 16014KT 21/19 A2997 RMK A01 T02080189  RH  089%=      5-min Rain = 0
KFR1 261941Z 16013KT 21/19 A2997 RMK A01 T02070189  RH  089%=      5-min Rain = 0
KFR1 261942Z 17010KT 21/19 A2997 RMK A01 T02060189  RH  090%=      5-min Rain = 0
KFR1 261943Z 17011KT 21/19 A2997 RMK A01 T02060189  RH  090%=      5-min Rain = 0
KFR1 261944Z 17010KT 21/19 A2997 RMK A01 T02060190  RH  090%=      5-min Rain = 0
KFR1 261945Z 17012KT 21/19 A2997 RMK A01 T02050189  RH  090%=      5-min Rain = 0
KFR1 261946Z 17011KT 21/19 A2997 RMK A01 T02050189  RH  090%=      5-min Rain = 0
KFR1 261947Z 17009KT 21/19 A2997 RMK A01 T02050189  RH  090%=      5-min Rain = 0
KFR1 261948Z 17011KT 21/19 A2997 RMK A01 T02050189  RH  091%=      5-min Rain = 0
KFR1 261949Z 17010KT 21/19 A2997 RMK A01 T02050189  RH  090%=      5-min Rain = 0
KFR1 261950Z 17009KT 21/19 A2997 RMK A01 T02050189  RH  090%=      5-min Rain = 0
KFR1 261951Z 17012KT 21/19 A2997 RMK A01 T02060190  RH  090%=      5-min Rain = 0
KFR1 261952Z 17011KT 21/19 A2998 RMK A01 T02050189  RH  090%=      5-min Rain = 0
KFR1 261953Z 17011G16KT 21/19 A2998 RMK A01 T02060189  RH  090%=      5-min Rain = 0
KFR1 261954Z 18009KT 21/19 A2998 RMK A01 T02060189  RH  090%=      5-min Rain = 0
KFR1 261955Z 18007G14KT 21/19 A2998 RMK A01 T02070190  RH  090%=      5-min Rain = 0
KFR1 261956Z 18010KT 21/19 A2998 RMK A01 T02070190  RH  090%=      5-min Rain = 0
KFR1 261957Z 18011KT 21/19 A2998 RMK A01 T02070190  RH  090%=      5-min Rain = 0
KFR1 261958Z 18010KT 21/19 A2997 RMK A01 T02070190  RH  090%=      5-min Rain = 0
KFR1 261959Z 18008KT 21/19 A2997 RMK A01 T02070190  RH  090%=      5-min Rain = 0
KFR1 262000Z 18008KT 21/19 A2997 RMK A01 T02070190  RH  090%=      5-min Rain = 0
KFR1 262001Z 17009G14KT 21/19 A2997 RMK A01 T02070190  RH  090%=      5-min Rain = 0
KFR1 262002Z 17012KT 21/19 A2996 RMK A01 T02070190  RH  090%=      5-min Rain = 0
KFR1 262003Z 18011KT 21/19 A2996 RMK A01 T02070191  RH  090%=      5-min Rain = 0
KFR1 262004Z 18011KT 21/19 A2996 RMK A01 T02070191  RH  090%=      5-min Rain = 0
KFR1 262005Z 19012KT 21/19 A2996 RMK A01 T02060191  RH  091%=      5-min Rain = 0.02
KFR1 262006Z 18012KT 21/19 A2996 RMK A01 T02060192  RH  092%=      5-min Rain = 0.01
KFR1 262007Z 18014KT 21/19 A2996 RMK A01 T02050192  RH  092%=      5-min Rain = 0.01
KFR1 262008Z 19013KT 20/19 A2996 RMK A01 T02040192  RH  093%=      5-min Rain = 0.05
KFR1 262009Z 19011KT 20/19 A2996 RMK A01 T02030192  RH  093%=      5-min Rain = 0.04
KFR1 262010Z 19010G15KT 20/19 A2997 RMK A01 T02020192  RH  094%=      5-min Rain = 0.01
KFR1 262011Z 21011KT 20/19 A2997 RMK A01 T02020193  RH  094%=      5-min Rain = 0.01
KFR1 262012Z 22015KT 20/19 A2998 RMK A01 T02020193  RH  095%=      5-min Rain = 0.02
KFR1 262013Z 22013G18KT 20/19 A2998 RMK A01 T02010192  RH  095%=      5-min Rain = 0.01
KFR1 262014Z 23014KT 20/19 A2999 RMK A01 T02010192  RH  095%=      5-min Rain = 0.03
KFR1 262015Z 23012KT 20/19 A2999 RMK A01 T02010192  RH  095%=      5-min Rain = 0.03
KFR1 262016Z 23011KT 20/19 A2998 RMK A01 T02010193  RH  095%=      5-min Rain = 0.01
KFR1 262017Z 23010KT 20/19 A2999 RMK A01 T02010193  RH  095%=      5-min Rain = 0.02
KFR1 262018Z 24014KT 20/19 A2999 RMK A01 T02000193  RH  096%=      5-min Rain = 0.01
KFR1 262019Z 23013KT 20/19 A2999 RMK A01 T02000193  RH  096%=      5-min Rain = 0.02
KFR1 262020Z 22013KT 20/19 A2998 RMK A01 T02000193  RH  096%=      5-min Rain = 0.01
KFR1 262021Z 19013G18KT 20/19 A2998 RMK A01 T02000192  RH  095%=      5-min Rain = 0.03
KFR1 262022Z 18020G25KT 20/18 A2997 RMK A01 T01970183  RH  092%=      5-min Rain = 0.02
KFR1 262023Z 18017G22KT 19/17 A2996 RMK A01 T01920169  RH  086%=      5-min Rain = 0.02
KFR1 262024Z 17021G27KT 19/16 A2995 RMK A01 T01880164  RH  086%=      5-min Rain = 0.02
KFR1 262025Z 17021G26KT 19/16 A2995 RMK A01 T01850157  RH  084%=      5-min Rain = 0
KFR1 262026Z 17023KT 18/15 A2994 RMK A01 T01820151  RH  082%=      5-min Rain = 0.01
KFR1 262027Z 17018G24KT 18/15 A2994 RMK A01 T01800150  RH  082%=      5-min Rain = 0
KFR1 262028Z 17017KT 18/15 A2994 RMK A01 T01790147  RH  082%=      5-min Rain = 0
KFR1 262029Z 16015KT 18/15 A2993 RMK A01 T01780147  RH  082%=      5-min Rain = 0
KFR1 262030Z 15012KT 18/15 A2992 RMK A01 T01770150  RH  084%=      5-min Rain = 0
KFR1 262031Z 16012G17KT 18/16 A2992 RMK A01 T01780156  RH  086%=      5-min Rain = 0
KFR1 262032Z 16013KT 18/16 A2992 RMK A01 T01810160  RH  088%=      5-min Rain = 0
KFR1 262033Z 16014KT 18/16 A2992 RMK A01 T01820163  RH  088%=      5-min Rain = 0
KFR1 262034Z 15015KT 18/16 A2992 RMK A01 T01830164  RH  088%=      5-min Rain = 0
KFR1 262035Z 16015G21KT 19/17 A2993 RMK A01 T01850166  RH  089%=      5-min Rain = 0
KFR1 262036Z 16017KT 19/17 A2993 RMK A01 T01860167  RH  089%=      5-min Rain = 0
KFR1 262037Z 16014KT 19/17 A2994 RMK A01 T01880169  RH  089%=      5-min Rain = 0
KFR1 262038Z 15013KT 19/17 A2994 RMK A01 T01880170  RH  089%=      5-min Rain = 0
KFR1 262039Z 15011KT 19/17 A2994 RMK A01 T01890171  RH  089%=      5-min Rain = 0
KFR1 262040Z 15013G19KT 19/17 A2994 RMK A01 T01890172  RH  090%=      5-min Rain = 0
KFR1 262041Z 15015G20KT 19/17 A2994 RMK A01 T01890170  RH  089%=      5-min Rain = 0
KFR1 262042Z 15015G21KT 19/17 A2993 RMK A01 T01890168  RH  087%=      5-min Rain = 0
KFR1 262043Z 15012G17KT 19/16 A2993 RMK A01 T01880164  RH  086%=      5-min Rain = 0
KFR1 262044Z 15015G21KT 19/16 A2992 RMK A01 T01870160  RH  084%=      5-min Rain = 0
KFR1 262045Z 15015G21KT 19/16 A2992 RMK A01 T01860158  RH  084%=      5-min Rain = 0
KFR1 262046Z 15014G23KT 19/16 A2992 RMK A01 T01850158  RH  084%=      5-min Rain = 0
KFR1 262047Z 15014G20KT 18/16 A2991 RMK A01 T01830158  RH  085%=      5-min Rain = 0
KFR1 262048Z 14015G21KT 18/16 A2991 RMK A01 T01830157  RH  085%=      5-min Rain = 0
KFR1 262049Z 13015G22KT 18/16 A299 RMK A01 T01830158  RH  085%=      5-min Rain = 0
KFR1 262050Z 13014G21KT 18/16 A299 RMK A01 T01830158  RH  085%=      5-min Rain = 0
KFR1 262051Z 14018G24KT 18/16 A2991 RMK A01 T01830159  RH  086%=      5-min Rain = 0
KFR1 262052Z 15016G21KT 18/16 A2991 RMK A01 T01830159  RH  086%=      5-min Rain = 0
KFR1 262053Z 15015G24KT 18/16 A2992 RMK A01 T01830161  RH  087%=      5-min Rain = 0
KFR1 262054Z 15015G24KT 18/16 A2991 RMK A01 T01830160  RH  087%=      5-min Rain = 0
KFR1 262055Z 15014G19KT 18/16 A2991 RMK A01 T01830159  RH  086%=      5-min Rain = 0
KFR1 262056Z 16016G23KT 18/16 A299 RMK A01 T01830156  RH  084%=      5-min Rain = 0
KFR1 262057Z 15016G22KT 18/16 A299 RMK A01 T01840155  RH  083%=      5-min Rain = 0
KFR1 262058Z 15014G19KT 19/15 A2989 RMK A01 T01850154  RH  082%=      5-min Rain = 0
KFR1 262059Z 16015KT 19/15 A2989 RMK A01 T01850153  RH  082%=      5-min Rain = 0
KFR1 262100Z 16017KT 19/15 A2989 RMK A01 T01850153  RH  081%=      5-min Rain = 0
KFR1 262101Z 16016KT 19/15 A299 RMK A01 T01860153  RH  081%=      5-min Rain = 0
KFR1 262102Z 17017KT 19/15 A299 RMK A01 T01860154  RH  082%=      5-min Rain = 0
KFR1 262103Z 17019KT 19/15 A299 RMK A01 T01870152  RH  080%=      5-min Rain = 0
KFR1 262104Z 18016G21KT 19/15 A2991 RMK A01 T01890153  RH  080%=      5-min Rain = 0
KFR1 262105Z 17017KT 19/16 A2992 RMK A01 T01900155  RH  080%=      5-min Rain = 0
KFR1 262106Z 17017G25KT 19/16 A2992 RMK A01 T01910156  RH  080%=      5-min Rain = 0
KFR1 262107Z 17019KT 19/16 A2992 RMK A01 T01920156  RH  079%=      5-min Rain = 0
KFR1 262108Z 16018G25KT 19/16 A2992 RMK A01 T01930156  RH  079%=      5-min Rain = 0
KFR1 262109Z 16019G24KT 19/16 A2991 RMK A01 T01930157  RH  080%=      5-min Rain = 0
KFR1 262110Z 16015KT 19/16 A2991 RMK A01 T01930160  RH  081%=      5-min Rain = 0
KFR1 262111Z 16021G26KT 19/16 A2991 RMK A01 T01930161  RH  082%=      5-min Rain = 0
KFR1 262112Z 16022G27KT 19/16 A2991 RMK A01 T01940163  RH  082%=      5-min Rain = 0
KFR1 262113Z 16019G25KT 19/17 A2991 RMK A01 T01940165  RH  083%=      5-min Rain = 0
KFR1 262114Z 16019G25KT 19/17 A2991 RMK A01 T01940166  RH  084%=      5-min Rain = 0
KFR1 262115Z 16018G26KT 20/17 A2991 RMK A01 T01950167  RH  084%=      5-min Rain = 0
KFR1 262116Z 16018G24KT 20/17 A2991 RMK A01 T01950169  RH  085%=      5-min Rain = 0
KFR1 262117Z 16016G22KT 20/17 A2991 RMK A01 T01950171  RH  086%=      5-min Rain = 0
KFR1 262118Z 16014G20KT 20/17 A2992 RMK A01 T01960173  RH  087%=      5-min Rain = 0
KFR1 262119Z 16014G19KT 20/18 A2991 RMK A01 T01960175  RH  087%=      5-min Rain = 0
KFR1 262120Z 16013G18KT 20/18 A2992 RMK A01 T01970176  RH  088%=      5-min Rain = 0
KFR1 262121Z 16016G22KT 20/18 A2992 RMK A01 T01980179  RH  089%=      5-min Rain = 0
KFR1 262122Z 16018KT 20/18 A2993 RMK A01 T01980180  RH  089%=      5-min Rain = 0
KFR1 262123Z 17015G21KT 20/18 A2993 RMK A01 T01990182  RH  090%=      5-min Rain = 0
KFR1 262124Z 16016KT 20/18 A2992 RMK A01 T02000184  RH  090%=      5-min Rain = 0
KFR1 262125Z 16015G20KT 20/19 A2992 RMK A01 T02020185  RH  090%=      5-min Rain = 0
KFR1 262126Z 16015KT 20/19 A2992 RMK A01 T02030186  RH  090%=      5-min Rain = 0
KFR1 262127Z 15013G20KT 20/19 A2992 RMK A01 T02040187  RH  090%=      5-min Rain = 0
KFR1 262128Z 15013G21KT 21/19 A2992 RMK A01 T02050188  RH  090%=      5-min Rain = 0
KFR1 262129Z 15014KT 21/19 A2992 RMK A01 T02050188  RH  090%=      5-min Rain = 0
KFR1 262130Z 16014KT 21/19 A2993 RMK A01 T02060189  RH  090%=      5-min Rain = 0
KFR1 262131Z 15012G18KT 21/19 A2993 RMK A01 T02070190  RH  090%=      5-min Rain = 0
KFR1 262132Z 16016KT 21/19 A2992 RMK A01 T02070190  RH  090%=      5-min Rain = 0
KFR1 262133Z 16011G16KT 21/19 A2992 RMK A01 T02070189  RH  089%=      5-min Rain = 0
KFR1 262134Z 15011G16KT 21/19 A2992 RMK A01 T02080189  RH  089%=      5-min Rain = 0
KFR1 262135Z 15013G20KT 21/19 A2992 RMK A01 T02080190  RH  089%=      5-min Rain = 0
KFR1 262136Z 16014G20KT 21/19 A2992 RMK A01 T02080189  RH  089%=      5-min Rain = 0
KFR1 262137Z 14012G19KT 21/19 A2991 RMK A01 T02080189  RH  089%=      5-min Rain = 0
KFR1 262138Z 15016G21KT 21/19 A2991 RMK A01 T02080189  RH  089%=      5-min Rain = 0
KFR1 262139Z 14012KT 21/19 A2991 RMK A01 T02080189  RH  089%=      5-min Rain = 0
KFR1 262140Z 15012KT 21/19 A2991 RMK A01 T02080190  RH  089%=      5-min Rain = 0
KFR1 262141Z 15012KT 21/19 A2991 RMK A01 T02080190  RH  089%=      5-min Rain = 0
KFR1 262142Z 15014G21KT 21/19 A2991 RMK A01 T02080190  RH  089%=      5-min Rain = 0
KFR1 262143Z 15014G21KT 21/19 A2991 RMK A01 T02080190  RH  089%=      5-min Rain = 0
KFR1 262144Z 16016G23KT 21/19 A2992 RMK A01 T02080190  RH  089%=      5-min Rain = 0
KFR1 262145Z 17019KT 21/19 A2993 RMK A01 T02080190  RH  089%=      5-min Rain = 0
KFR1 262146Z 17019G26KT 21/19 A2993 RMK A01 T02080190  RH  089%=      5-min Rain = 0
KFR1 262147Z 16017KT 21/19 A2993 RMK A01 T02080190  RH  089%=      5-min Rain = 0
KFR1 262148Z 16015G21KT 21/19 A2993 RMK A01 T02080190  RH  089%=      5-min Rain = 0
KFR1 262149Z 15015G21KT 21/19 A2992 RMK A01 T02080190  RH  089%=      5-min Rain = 0
KFR1 262150Z 16016G21KT 21/19 A2992 RMK A01 T02080189  RH  089%=      5-min Rain = 0
KFR1 262151Z 16014KT 21/19 A2992 RMK A01 T02090190  RH  089%=      5-min Rain = 0
KFR1 262152Z 15014G20KT 21/19 A2992 RMK A01 T02090190  RH  089%=      5-min Rain = 0
KFR1 262153Z 16016KT 21/19 A2991 RMK A01 T02090190  RH  089%=      5-min Rain = 0
KFR1 262154Z 16016G22KT 21/19 A2992 RMK A01 T02090189  RH  088%=      5-min Rain = 0
KFR1 262155Z 16013KT 21/19 A2991 RMK A01 T02100190  RH  089%=      5-min Rain = 0
KFR1 262156Z 15015KT 21/19 A2991 RMK A01 T02090190  RH  089%=      5-min Rain = 0
KFR1 262157Z 15012KT 21/19 A299 RMK A01 T02090190  RH  089%=      5-min Rain = 0
KFR1 262158Z 16012G17KT 21/19 A299 RMK A01 T02090190  RH  089%=      5-min Rain = 0
KFR1 262159Z 15010KT 21/19 A299 RMK A01 T02090190  RH  089%=      5-min Rain = 0
KFR1 262200Z 15014G19KT 21/19 A299 RMK A01 T02090190  RH  089%=      5-min Rain = 0
KFR1 262201Z 15013G19KT 21/19 A299 RMK A01 T02090189  RH  089%=      5-min Rain = 0
KFR1 262202Z 15014G21KT 21/19 A299 RMK A01 T02080189  RH  089%=      5-min Rain = 0
KFR1 262203Z 15014G20KT 21/19 A2989 RMK A01 T02080189  RH  089%=      5-min Rain = 0
KFR1 262204Z 14014G19KT 21/19 A2989 RMK A01 T02080189  RH  089%=      5-min Rain = 0
KFR1 262205Z 15014G20KT 21/19 A2989 RMK A01 T02080189  RH  089%=      5-min Rain = 0
KFR1 262206Z 15012KT 21/19 A2989 RMK A01 T02080189  RH  089%=      5-min Rain = 0
KFR1 262207Z 14014G19KT 21/19 A2988 RMK A01 T02080189  RH  089%=      5-min Rain = 0
KFR1 262208Z 14016G21KT 21/19 A2988 RMK A01 T02080188  RH  088%=      5-min Rain = 0
KFR1 262209Z 15018KT 21/19 A2987 RMK A01 T02080188  RH  088%=      5-min Rain = 0
KFR1 262210Z 15016G21KT 21/19 A2987 RMK A01 T02080188  RH  088%=      5-min Rain = 0
KFR1 262211Z 15014KT 21/19 A2987 RMK A01 T02080188  RH  088%=      5-min Rain = 0
KFR1 262212Z 14015G25KT 21/19 A2987 RMK A01 T02080189  RH  089%=      5-min Rain = 0
KFR1 262213Z 14016KT 21/19 A2987 RMK A01 T02080189  RH  089%=      5-min Rain = 0
KFR1 262214Z 15017G22KT 21/19 A2987 RMK A01 T02080189  RH  089%=      5-min Rain = 0
KFR1 262215Z 14017G25KT 21/19 A2987 RMK A01 T02070188  RH  089%=      5-min Rain = 0
KFR1 262216Z 14015KT 21/19 A2986 RMK A01 T02070188  RH  089%=      5-min Rain = 0
KFR1 262217Z 13014G21KT 21/19 A2986 RMK A01 T02070188  RH  089%=      5-min Rain = 0
KFR1 262218Z 15017G25KT 21/19 A2986 RMK A01 T02070188  RH  089%=      5-min Rain = 0
KFR1 262219Z 15014G20KT 21/19 A2986 RMK A01 T02070187  RH  088%=      5-min Rain = 0
KFR1 262220Z 14016G23KT 21/19 A2986 RMK A01 T02070188  RH  089%=      5-min Rain = 0
KFR1 262221Z 15015G24KT 21/19 A2985 RMK A01 T02080188  RH  089%=      5-min Rain = 0
KFR1 262222Z 14015G24KT 21/19 A2985 RMK A01 T02070188  RH  089%=      5-min Rain = 0
KFR1 262223Z 14015G20KT 21/19 A2985 RMK A01 T02070188  RH  089%=      5-min Rain = 0
KFR1 262224Z 14016KT 21/19 A2985 RMK A01 T02070188  RH  089%=      5-min Rain = 0
KFR1 262225Z 14016G22KT 21/19 A2984 RMK A01 T02070188  RH  089%=      5-min Rain = 0
KFR1 262226Z 13015G21KT 21/19 A2984 RMK A01 T02060187  RH  089%=      5-min Rain = 0
KFR1 262227Z 14014G26KT 21/19 A2984 RMK A01 T02060188  RH  089%=      5-min Rain = 0
KFR1 262228Z 13018G24KT 21/19 A2984 RMK A01 T02060187  RH  089%=      5-min Rain = 0
KFR1 262229Z 13018G24KT 21/19 A2984 RMK A01 T02050187  RH  089%=      5-min Rain = 0
KFR1 262230Z 14019G25KT 21/19 A2984 RMK A01 T02050187  RH  089%=      5-min Rain = 0
KFR1 262231Z 14014G19KT 21/19 A2984 RMK A01 T02050187  RH  089%=      5-min Rain = 0
KFR1 262232Z 13018G27KT 21/19 A2983 RMK A01 T02050187  RH  089%=      5-min Rain = 0
KFR1 262233Z 14019G26KT 21/19 A2983 RMK A01 T02050187  RH  089%=      5-min Rain = 0
KFR1 262234Z 14015G20KT 21/19 A2983 RMK A01 T02050187  RH  089%=      5-min Rain = 0
KFR1 262235Z 14015G21KT 21/19 A2984 RMK A01 T02050187  RH  089%=      5-min Rain = 0
KFR1 262236Z 15020G25KT 21/19 A2984 RMK A01 T02050187  RH  089%=      5-min Rain = 0
KFR1 262237Z 15017G24KT 21/19 A2985 RMK A01 T02050187  RH  089%=      5-min Rain = 0
KFR1 262238Z 16018G28KT 21/19 A2985 RMK A01 T02050187  RH  089%=      5-min Rain = 0
KFR1 262239Z 15022G28KT 21/19 A2985 RMK A01 T02050187  RH  089%=      5-min Rain = 0
KFR1 262240Z 16018G24KT 21/19 A2985 RMK A01 T02050186  RH  089%=      5-min Rain = 0
KFR1 262241Z 16018G26KT 21/19 A2985 RMK A01 T02050187  RH  089%=      5-min Rain = 0
KFR1 262242Z 15016G25KT 21/19 A2985 RMK A01 T02060187  RH  089%=      5-min Rain = 0
KFR1 262243Z 15019G28KT 21/19 A2985 RMK A01 T02060187  RH  089%=      5-min Rain = 0
KFR1 262244Z 14019G27KT 21/19 A2984 RMK A01 T02060187  RH  089%=      5-min Rain = 0
KFR1 262245Z 15020G26KT 21/19 A2983 RMK A01 T02050187  RH  089%=      5-min Rain = 0
KFR1 262246Z 14023G34KT 21/19 A2983 RMK A01 T02060187  RH  089%=      5-min Rain = 0
KFR1 262247Z 15022G31KT 21/19 A2983 RMK A01 T02050186  RH  089%=      5-min Rain = 0
KFR1 262248Z 15017G27KT 21/19 A2984 RMK A01 T02050186  RH  089%=      5-min Rain = 0
KFR1 262249Z 15020G33KT 21/19 A2984 RMK A01 T02050187  RH  089%=      5-min Rain = 0
KFR1 262250Z 15021G30KT 21/19 A2984 RMK A01 T02050187  RH  089%=      5-min Rain = 0
KFR1 262251Z 16021G27KT 21/19 A2984 RMK A01 T02050186  RH  089%=      5-min Rain = 0
KFR1 262252Z 14017G27KT 21/19 A2984 RMK A01 T02050187  RH  089%=      5-min Rain = 0
KFR1 262253Z 14019G27KT 21/19 A2983 RMK A01 T02050187  RH  089%=      5-min Rain = 0
KFR1 262254Z 14015G26KT 21/19 A2983 RMK A01 T02050187  RH  089%=      5-min Rain = 0
KFR1 262255Z 15020G29KT 21/19 A2983 RMK A01 T02050187  RH  089%=      5-min Rain = 0
KFR1 262256Z 15018G26KT 21/19 A2983 RMK A01 T02050186  RH  089%=      5-min Rain = 0
KFR1 262257Z 14021G33KT 21/19 A2982 RMK A01 T02050186  RH  089%=      5-min Rain = 0
KFR1 262258Z 14020G30KT 21/19 A2982 RMK A01 T02050186  RH  089%=      5-min Rain = 0
KFR1 262259Z 14018G25KT 21/19 A2982 RMK A01 T02050186  RH  089%=      5-min Rain = 0
KFR1 262300Z 15021G26KT 21/19 A2981 RMK A01 T02050186  RH  089%=      5-min Rain = 0
KFR1 262301Z 14018G28KT 21/19 A2981 RMK A01 T02050186  RH  089%=      5-min Rain = 0
KFR1 262302Z 14018G25KT 21/19 A2981 RMK A01 T02050186  RH  089%=      5-min Rain = 0
KFR1 262303Z 14020G28KT 21/19 A2981 RMK A01 T02050186  RH  089%=      5-min Rain = 0
KFR1 262304Z 15019G27KT 21/19 A2982 RMK A01 T02050186  RH  089%=      5-min Rain = 0
KFR1 262305Z 15019G24KT 21/19 A2982 RMK A01 T02050186  RH  089%=      5-min Rain = 0
KFR1 262306Z 15019G26KT 21/19 A2982 RMK A01 T02060186  RH  088%=      5-min Rain = 0
KFR1 262307Z 15019G27KT 21/19 A2982 RMK A01 T02070187  RH  088%=      5-min Rain = 0
KFR1 262308Z 15018G26KT 21/19 A2982 RMK A01 T02080187  RH  087%=      5-min Rain = 0
KFR1 262309Z 15018G25KT 21/19 A2982 RMK A01 T02090187  RH  087%=      5-min Rain = 0
KFR1 262310Z 15019G26KT 21/19 A2982 RMK A01 T02090187  RH  087%=      5-min Rain = 0
KFR1 262311Z 16019G29KT 21/19 A2982 RMK A01 T02100187  RH  086%=      5-min Rain = 0
KFR1 262312Z 15017G25KT 21/19 A2982 RMK A01 T02110187  RH  086%=      5-min Rain = 0
KFR1 262313Z 15016G22KT 21/19 A2982 RMK A01 T02110188  RH  086%=      5-min Rain = 0
KFR1 262314Z 15017G26KT 21/19 A2982 RMK A01 T02120188  RH  086%=      5-min Rain = 0
KFR1 262315Z 15019G29KT 21/19 A2982 RMK A01 T02130188  RH  086%=      5-min Rain = 0
KFR1 262316Z 15023G32KT 21/19 A2981 RMK A01 T02130187  RH  085%=      5-min Rain = 0
KFR1 262317Z 15020G27KT 21/19 A2981 RMK A01 T02130187  RH  085%=      5-min Rain = 0
KFR1 262318Z 15018G23KT 21/19 A2981 RMK A01 T02120187  RH  085%=      5-min Rain = 0
KFR1 262319Z 15017G26KT 21/19 A2981 RMK A01 T02130188  RH  086%=      5-min Rain = 0
KFR1 262320Z 15023G32KT 21/19 A2981 RMK A01 T02120187  RH  085%=      5-min Rain = 0
KFR1 262321Z 15019KT 21/19 A2981 RMK A01 T02130187  RH  085%=      5-min Rain = 0
KFR1 262322Z 15020G28KT 21/19 A2981 RMK A01 T02130188  RH  085%=      5-min Rain = 0
KFR1 262323Z 15021G28KT 21/19 A2981 RMK A01 T02140188  RH  085%=      5-min Rain = 0
KFR1 262324Z 15021G35KT 22/19 A2981 RMK A01 T02150188  RH  085%=      5-min Rain = 0
KFR1 262325Z 16020G32KT 22/19 A2981 RMK A01 T02160188  RH  084%=      5-min Rain = 0.01
KFR1 262326Z 15018G27KT 22/19 A2982 RMK A01 T02170190  RH  085%=      5-min Rain = 0
KFR1 262327Z 15019G32KT 22/19 A2981 RMK A01 T02170189  RH  084%=      5-min Rain = 0
KFR1 262328Z 15021G29KT 22/19 A2981 RMK A01 T02170188  RH  084%=      5-min Rain = 0
KFR1 262329Z 16023G31KT 22/19 A2981 RMK A01 T02170189  RH  084%=      5-min Rain = 0
KFR1 262330Z 15024G32KT 22/19 A2981 RMK A01 T02160188  RH  084%=      5-min Rain = 0
KFR1 262331Z 15027G34KT 21/19 A2981 RMK A01 T02140187  RH  085%=      5-min Rain = 0
KFR1 262332Z 16026G32KT 21/19 A2981 RMK A01 T02130187  RH  085%=      5-min Rain = 0
KFR1 262333Z 16024G30KT 21/19 A2981 RMK A01 T02120187  RH  086%=      5-min Rain = 0
KFR1 262334Z 16022KT 21/19 A2981 RMK A01 T02110188  RH  086%=      5-min Rain = 0
KFR1 262335Z 15026G35KT 21/19 A2981 RMK A01 T02110188  RH  087%=      5-min Rain = 0
KFR1 262336Z 16022G31KT 21/19 A2981 RMK A01 T02100187  RH  087%=      5-min Rain = 0
KFR1 262337Z 16024G29KT 21/19 A2981 RMK A01 T02090187  RH  087%=      5-min Rain = 0
KFR1 262338Z 15019G27KT 21/19 A2981 RMK A01 T02090187  RH  087%=      5-min Rain = 0
KFR1 262339Z 16020G28KT 21/19 A2981 RMK A01 T02090188  RH  087%=      5-min Rain = 0
KFR1 262340Z 16026G35KT 21/19 A2981 RMK A01 T02090187  RH  087%=      5-min Rain = 0
KFR1 262341Z 16021G33KT 21/19 A2981 RMK A01 T02090188  RH  088%=      5-min Rain = 0
KFR1 262342Z 16025G33KT 21/19 A2981 RMK A01 T02090187  RH  087%=      5-min Rain = 0
KFR1 262343Z 16022G30KT 21/19 A2981 RMK A01 T02090188  RH  088%=      5-min Rain = 0
KFR1 262344Z 16021G30KT 21/19 A2981 RMK A01 T02080188  RH  088%=      5-min Rain = 0
KFR1 262345Z 16024G34KT 21/19 A2981 RMK A01 T02080188  RH  088%=      5-min Rain = 0
KFR1 262346Z 16022G31KT 21/19 A2981 RMK A01 T02080187  RH  088%=      5-min Rain = 0
KFR1 262347Z 16021G27KT 21/19 A2981 RMK A01 T02080188  RH  088%=      5-min Rain = 0
KFR1 262348Z 16027G34KT 21/19 A2981 RMK A01 T02080187  RH  088%=      5-min Rain = 0
KFR1 262349Z 16020G28KT 21/19 A2981 RMK A01 T02080187  RH  088%=      5-min Rain = 0
KFR1 262350Z 16021G26KT 21/19 A2981 RMK A01 T02080187  RH  088%=      5-min Rain = 0
KFR1 262351Z 16023G32KT 21/19 A2981 RMK A01 T02080187  RH  088%=      5-min Rain = 0
KFR1 262352Z 16027G33KT 21/19 A298 RMK A01 T02080187  RH  088%=      5-min Rain = 0
KFR1 262353Z 17021G27KT 21/19 A298 RMK A01 T02080187  RH  088%=      5-min Rain = 0
KFR1 262354Z 16025G34KT 21/19 A298 RMK A01 T02080187  RH  088%=      5-min Rain = 0
KFR1 262355Z 16024G32KT 21/19 A298 RMK A01 T02080187  RH  087%=      5-min Rain = 0
KFR1 262356Z 16024G30KT 21/19 A298 RMK A01 T02080187  RH  087%=      5-min Rain = 0
KFR1 262357Z 16023G30KT 21/19 A298 RMK A01 T02080187  RH  087%=      5-min Rain = 0
KFR1 262358Z 16026G34KT 21/19 A298 RMK A01 T02080186  RH  087%=      5-min Rain = 0
KFR1 262359Z 17020G27KT 21/19 A298 RMK A01 T02080186  RH  087%=      5-min Rain = 0
KFR1 270000Z 16018G24KT 21/19 A298 RMK A01 T02090187  RH  087%=      5-min Rain = 0
KFR1 270001Z 15018G24KT 21/19 A298 RMK A01 T02090187  RH  087%=      5-min Rain = 0
KFR1 270002Z 16022G30KT 21/19 A298 RMK A01 T02090187  RH  087%=      5-min Rain = 0
KFR1 270003Z 17020KT 21/19 A298 RMK A01 T02090187  RH  087%=      5-min Rain = 0
KFR1 270004Z 16023G28KT 21/19 A298 RMK A01 T02090187  RH  087%=      5-min Rain = 0
KFR1 270005Z 16027G35KT 21/19 A2981 RMK A01 T02090187  RH  087%=      5-min Rain = 0
KFR1 270006Z 16024G32KT 21/19 A2981 RMK A01 T02090187  RH  087%=      5-min Rain = 0
KFR1 270007Z 16020G36KT 21/19 A298 RMK A01 T02090187  RH  087%=      5-min Rain = 0
KFR1 270008Z 16023G29KT 21/19 A298 RMK A01 T02090187  RH  087%=      5-min Rain = 0
KFR1 270009Z 16019G24KT 21/19 A298 RMK A01 T02090188  RH  088%=      5-min Rain = 0
KFR1 270010Z 16022G30KT 21/19 A298 RMK A01 T02090187  RH  088%=      5-min Rain = 0
KFR1 270011Z 16021G27KT 21/19 A298 RMK A01 T02090186  RH  087%=      5-min Rain = 0
KFR1 270012Z 16022G31KT 21/19 A298 RMK A01 T02090186  RH  087%=      5-min Rain = 0
KFR1 270013Z 16021G28KT 21/19 A298 RMK A01 T02090186  RH  087%=      5-min Rain = 0
KFR1 270014Z 16026G31KT 21/19 A298 RMK A01 T02090187  RH  087%=      5-min Rain = 0
KFR1 270015Z 16023G29KT 21/19 A298 RMK A01 T02090186  RH  087%=      5-min Rain = 0
KFR1 270016Z 16021G31KT 21/19 A298 RMK A01 T02090186  RH  087%=      5-min Rain = 0
KFR1 270017Z 16025G33KT 21/19 A2979 RMK A01 T02090186  RH  087%=      5-min Rain = 0
KFR1 270018Z 16017G22KT 21/19 A2979 RMK A01 T02090186  RH  086%=      5-min Rain = 0
KFR1 270019Z 16018KT 21/19 A2979 RMK A01 T02100187  RH  087%=      5-min Rain = 0
KFR1 270020Z 16024G34KT 21/19 A2979 RMK A01 T02100187  RH  087%=      5-min Rain = 0
KFR1 270021Z 16023G29KT 21/19 A2979 RMK A01 T02100186  RH  086%=      5-min Rain = 0
KFR1 270022Z 16020G27KT 21/19 A2979 RMK A01 T02100187  RH  087%=      5-min Rain = 0
KFR1 270023Z 17020KT 21/19 A298 RMK A01 T02100187  RH  087%=      5-min Rain = 0
KFR1 270024Z 16027G34KT 21/19 A2979 RMK A01 T02100187  RH  087%=      5-min Rain = 0
KFR1 270025Z 17024G29KT 21/19 A2979 RMK A01 T02100186  RH  086%=      5-min Rain = 0
KFR1 270026Z 16023G32KT 21/19 A2979 RMK A01 T02090186  RH  086%=      5-min Rain = 0
KFR1 270027Z 17024KT 21/19 A2979 RMK A01 T02100186  RH  087%=      5-min Rain = 0
KFR1 270028Z 17023G31KT 21/19 A2979 RMK A01 T02100186  RH  087%=      5-min Rain = 0
KFR1 270029Z 17022G27KT 21/19 A298 RMK A01 T02100187  RH  087%=      5-min Rain = 0
KFR1 270030Z 17023G29KT 21/19 A298 RMK A01 T02100187  RH  086%=      5-min Rain = 0
KFR1 270031Z 17025G36KT 21/19 A298 RMK A01 T02100186  RH  086%=      5-min Rain = 0
KFR1 270032Z 17022G30KT 21/19 A2979 RMK A01 T02110187  RH  086%=      5-min Rain = 0
KFR1 270033Z 16019G25KT 21/19 A298 RMK A01 T02110187  RH  086%=      5-min Rain = 0
KFR1 270034Z 17023G35KT 21/19 A2979 RMK A01 T02110187  RH  086%=      5-min Rain = 0
KFR1 270035Z 17021G30KT 21/19 A2979 RMK A01 T02100186  RH  086%=      5-min Rain = 0
KFR1 270036Z 17023G31KT 21/19 A2979 RMK A01 T02110186  RH  086%=      5-min Rain = 0
KFR1 270037Z 17019G25KT 21/19 A2979 RMK A01 T02100186  RH  086%=      5-min Rain = 0
KFR1 270038Z 17020G29KT 21/19 A2979 RMK A01 T02100187  RH  086%=      5-min Rain = 0
KFR1 270039Z 17021G26KT 21/19 A2979 RMK A01 T02110187  RH  086%=      5-min Rain = 0
KFR1 270040Z 17018G25KT 21/19 A2978 RMK A01 T02100186  RH  086%=      5-min Rain = 0
KFR1 270041Z 17025G31KT 21/19 A2978 RMK A01 T02110187  RH  086%=      5-min Rain = 0
KFR1 270042Z 16022G27KT 21/19 A2978 RMK A01 T02110187  RH  086%=      5-min Rain = 0
KFR1 270043Z 16023G29KT 21/19 A2978 RMK A01 T02110187  RH  086%=      5-min Rain = 0
KFR1 270044Z 17021G26KT 21/19 A2977 RMK A01 T02110186  RH  086%=      5-min Rain = 0
KFR1 270045Z 16021G29KT 21/19 A2977 RMK A01 T02110187  RH  086%=      5-min Rain = 0
KFR1 270046Z 16022G30KT 21/19 A2977 RMK A01 T02110187  RH  086%=      5-min Rain = 0
KFR1 270047Z 16024G31KT 21/19 A2977 RMK A01 T02110187  RH  086%=      5-min Rain = 0
KFR1 270048Z 16024G30KT 21/19 A2977 RMK A01 T02110187  RH  086%=      5-min Rain = 0
KFR1 270049Z 16020G26KT 21/19 A2976 RMK A01 T02110187  RH  086%=      5-min Rain = 0
KFR1 270050Z 17020G28KT 21/19 A2976 RMK A01 T02100187  RH  086%=      5-min Rain = 0
KFR1 270051Z 16021G27KT 21/19 A2976 RMK A01 T02110187  RH  086%=      5-min Rain = 0
KFR1 270052Z 17020G25KT 21/19 A2977 RMK A01 T02110187  RH  086%=      5-min Rain = 0
KFR1 270053Z 16020KT 21/19 A2977 RMK A01 T02100187  RH  087%=      5-min Rain = 0
KFR1 270054Z 17017G26KT 21/19 A2978 RMK A01 T02100187  RH  087%=      5-min Rain = 0
KFR1 270055Z 16018G26KT 21/19 A2978 RMK A01 T02100187  RH  087%=      5-min Rain = 0
KFR1 270056Z 16020G29KT 21/19 A2979 RMK A01 T02100187  RH  087%=      5-min Rain = 0
KFR1 270057Z 17026G31KT 21/19 A2979 RMK A01 T02100187  RH  087%=      5-min Rain = 0
KFR1 270058Z 17023KT 21/19 A2979 RMK A01 T02110187  RH  086%=      5-min Rain = 0
KFR1 270059Z 17021G26KT 21/19 A298 RMK A01 T02110187  RH  086%=      5-min Rain = 0
KFR1 270100Z 16025G30KT 21/19 A298 RMK A01 T02110187  RH  086%=      5-min Rain = 0
KFR1 270101Z 17021G28KT 21/19 A298 RMK A01 T02120187  RH  086%=      5-min Rain = 0
KFR1 270102Z 17021G29KT 21/19 A298 RMK A01 T02110187  RH  086%=      5-min Rain = 0
KFR1 270103Z 17021G26KT 21/19 A298 RMK A01 T02120187  RH  086%=      5-min Rain = 0
KFR1 270104Z 16025G31KT 21/19 A2981 RMK A01 T02120187  RH  086%=      5-min Rain = 0
KFR1 270105Z 16023G29KT 21/19 A2981 RMK A01 T02120187  RH  086%=      5-min Rain = 0
KFR1 270106Z 17023G30KT 21/19 A2982 RMK A01 T02120187  RH  086%=      5-min Rain = 0
KFR1 270107Z 17022G27KT 21/19 A2982 RMK A01 T02120187  RH  086%=      5-min Rain = 0
KFR1 270108Z 16022G28KT 21/19 A2982 RMK A01 T02120188  RH  086%=      5-min Rain = 0
KFR1 270109Z 17018G26KT 21/19 A2982 RMK A01 T02120187  RH  086%=      5-min Rain = 0
KFR1 270110Z 17023G29KT 21/19 A2982 RMK A01 T02120188  RH  086%=      5-min Rain = 0
KFR1 270111Z 18022G28KT 21/19 A2983 RMK A01 T02120188  RH  086%=      5-min Rain = 0
KFR1 270112Z 17021G28KT 21/19 A2983 RMK A01 T02120188  RH  086%=      5-min Rain = 0
KFR1 270113Z 18019G24KT 21/19 A2983 RMK A01 T02120188  RH  086%=      5-min Rain = 0
KFR1 270114Z 18021G29KT 21/19 A2984 RMK A01 T02120188  RH  086%=      5-min Rain = 0
KFR1 270115Z 18017KT 21/19 A2984 RMK A01 T02130188  RH  086%=      5-min Rain = 0
KFR1 270116Z 18019G25KT 21/19 A2985 RMK A01 T02130188  RH  086%=      5-min Rain = 0
KFR1 270117Z 18014KT 21/19 A2985 RMK A01 T02130188  RH  086%=      5-min Rain = 0
KFR1 270118Z 18017G23KT 21/19 A2985 RMK A01 T02130189  RH  086%=      5-min Rain = 0
KFR1 270119Z 19016G24KT 21/19 A2985 RMK A01 T02130189  RH  086%=      5-min Rain = 0
KFR1 270120Z 19018G26KT 21/19 A2985 RMK A01 T02130188  RH  086%=      5-min Rain = 0
KFR1 270121Z 18017KT 21/19 A2985 RMK A01 T02130188  RH  086%=      5-min Rain = 0
KFR1 270122Z 18013G18KT 21/19 A2985 RMK A01 T02130188  RH  086%=      5-min Rain = 0
KFR1 270123Z 19013KT 21/19 A2985 RMK A01 T02130189  RH  086%=      5-min Rain = 0
KFR1 270124Z 19019G24KT 21/19 A2985 RMK A01 T02130189  RH  086%=      5-min Rain = 0
KFR1 270125Z 19014KT 21/19 A2985 RMK A01 T02130189  RH  086%=      5-min Rain = 0
KFR1 270126Z 18017KT 21/19 A2985 RMK A01 T02130188  RH  086%=      5-min Rain = 0
KFR1 270127Z 18014G20KT 21/19 A2985 RMK A01 T02130189  RH  086%=      5-min Rain = 0
KFR1 270128Z 18015G20KT 21/19 A2985 RMK A01 T02130189  RH  086%=      5-min Rain = 0
KFR1 270129Z 18016G21KT 21/19 A2985 RMK A01 T02130189  RH  086%=      5-min Rain = 0
KFR1 270130Z 18017KT 21/19 A2985 RMK A01 T02130188  RH  086%=      5-min Rain = 0
KFR1 270131Z 18017KT 21/19 A2985 RMK A01 T02130188  RH  086%=      5-min Rain = 0
KFR1 270132Z 18016G22KT 21/19 A2985 RMK A01 T02130188  RH  086%=      5-min Rain = 0
KFR1 270133Z 18017KT 21/19 A2985 RMK A01 T02130188  RH  086%=      5-min Rain = 0
KFR1 270134Z 18014KT 21/19 A2985 RMK A01 T02130188  RH  086%=      5-min Rain = 0
KFR1 270135Z 18016KT 21/19 A2985 RMK A01 T02130188  RH  086%=      5-min Rain = 0
KFR1 270136Z 18011KT 21/19 A2985 RMK A01 T02130189  RH  086%=      5-min Rain = 0
KFR1 270137Z 18013KT 21/19 A2985 RMK A01 T02130189  RH  086%=      5-min Rain = 0
KFR1 270138Z 18011G16KT 21/19 A2985 RMK A01 T02130189  RH  086%=      5-min Rain = 0
KFR1 270139Z 18015G20KT 21/19 A2985 RMK A01 T02130189  RH  086%=      5-min Rain = 0
KFR1 270140Z 18016G22KT 21/19 A2986 RMK A01 T02120189  RH  086%=      5-min Rain = 0
KFR1 270141Z 18017G23KT 21/19 A2986 RMK A01 T02120189  RH  086%=      5-min Rain = 0
KFR1 270142Z 19015G20KT 21/19 A2987 RMK A01 T02130189  RH  086%=      5-min Rain = 0
KFR1 270143Z 19012KT 21/19 A2987 RMK A01 T02130189  RH  086%=      5-min Rain = 0
KFR1 270144Z 19014KT 21/19 A2987 RMK A01 T02130189  RH  086%=      5-min Rain = 0
KFR1 270145Z 20015KT 21/19 A2988 RMK A01 T02130189  RH  086%=      5-min Rain = 0
KFR1 270146Z 19015KT 21/19 A2988 RMK A01 T02130189  RH  086%=      5-min Rain = 0
KFR1 270147Z 20016KT 21/19 A2988 RMK A01 T02130189  RH  086%=      5-min Rain = 0
KFR1 270148Z 20012KT 21/19 A2988 RMK A01 T02130189  RH  086%=      5-min Rain = 0
KFR1 270149Z 21012KT 21/19 A2989 RMK A01 T02130189  RH  086%=      5-min Rain = 0
KFR1 270150Z 20012G17KT 21/19 A2989 RMK A01 T02130190  RH  086%=      5-min Rain = 0
KFR1 270151Z 21014KT 21/19 A2989 RMK A01 T02130190  RH  086%=      5-min Rain = 0
KFR1 270152Z 21013KT 21/19 A2989 RMK A01 T02130190  RH  087%=      5-min Rain = 0
KFR1 270153Z 22012KT 21/19 A299 RMK A01 T02130190  RH  087%=      5-min Rain = 0
KFR1 270154Z 22012KT 21/19 A299 RMK A01 T02130191  RH  087%=      5-min Rain = 0
KFR1 270155Z 22014KT 21/19 A2989 RMK A01 T02130190  RH  087%=      5-min Rain = 0
KFR1 270156Z 21015KT 21/19 A299 RMK A01 T02130190  RH  087%=      5-min Rain = 0
KFR1 270157Z 21016KT 21/19 A299 RMK A01 T02130190  RH  087%=      5-min Rain = 0
KFR1 270158Z 21012KT 21/19 A299 RMK A01 T02130190  RH  087%=      5-min Rain = 0
KFR1 270159Z 21014KT 21/19 A299 RMK A01 T02130190  RH  087%=      5-min Rain = 0
KFR1 270200Z 21014KT 21/19 A299 RMK A01 T02130190  RH  086%=      5-min Rain = 0
KFR1 270201Z 21012KT 21/19 A299 RMK A01 T02130190  RH  087%=      5-min Rain = 0
KFR1 270202Z 21010KT 21/19 A2991 RMK A01 T02130190  RH  087%=      5-min Rain = 0
KFR1 270203Z 21014KT 21/19 A2991 RMK A01 T02140190  RH  087%=      5-min Rain = 0
KFR1 270204Z 22014KT 21/19 A2991 RMK A01 T02130190  RH  087%=      5-min Rain = 0
KFR1 270205Z 22015KT 21/19 A2991 RMK A01 T02130190  RH  087%=      5-min Rain = 0
KFR1 270206Z 22014KT 21/19 A2991 RMK A01 T02140190  RH  086%=      5-min Rain = 0
KFR1 270207Z 22013KT 21/19 A2991 RMK A01 T02140190  RH  086%=      5-min Rain = 0
KFR1 270208Z 21013KT 21/19 A2992 RMK A01 T02140190  RH  087%=      5-min Rain = 0
KFR1 270209Z 22014KT 21/19 A2992 RMK A01 T02140191  RH  087%=      5-min Rain = 0
KFR1 270210Z 21015KT 21/19 A2991 RMK A01 T02140191  RH  087%=      5-min Rain = 0
KFR1 270211Z 21015KT 21/19 A2991 RMK A01 T02140191  RH  087%=      5-min Rain = 0
KFR1 270212Z 22015KT 21/19 A2991 RMK A01 T02140191  RH  087%=      5-min Rain = 0
KFR1 270213Z 22015KT 21/19 A2991 RMK A01 T02140191  RH  087%=      5-min Rain = 0
KFR1 270214Z 22015KT 21/19 A2991 RMK A01 T02140191  RH  087%=      5-min Rain = 0
KFR1 270215Z 24014KT 21/19 A2992 RMK A01 T02140191  RH  087%=      5-min Rain = 0
KFR1 270216Z 23013KT 21/19 A2992 RMK A01 T02140191  RH  087%=      5-min Rain = 0
KFR1 270217Z 25013KT 21/19 A2993 RMK A01 T02140192  RH  087%=      5-min Rain = 0
KFR1 270218Z 28018G27KT 21/18 A2995 RMK A01 T02120179  RH  082%=      5-min Rain = 0
KFR1 270219Z 28022G29KT 20/14 A2996 RMK A01 T02010140  RH  068%=      5-min Rain = 0
KFR1 270220Z 27026G34KT 19/13 A2997 RMK A01 T01870129  RH  069%=      5-min Rain = 0
KFR1 270221Z 27020G27KT 17/13 A2997 RMK A01 T01740130  RH  075%=      5-min Rain = 0.01
KFR1 270222Z 26017G24KT 17/13 A2999 RMK A01 T01650131  RH  080%=      5-min Rain = 0.01
KFR1 270223Z 25017KT 16/13 A2999 RMK A01 T01600132  RH  083%=      5-min Rain = 0.01
KFR1 270224Z 24020G27KT 16/13 A2999 RMK A01 T01570130  RH  084%=      5-min Rain = 0.03
KFR1 270225Z 24019G25KT 16/13 A2999 RMK A01 T01560129  RH  084%=      5-min Rain = 0.02
KFR1 270226Z 25018KT 15/13 A2997 RMK A01 T01540129  RH  085%=      5-min Rain = 0.03
KFR1 270227Z 25015KT 15/13 A2995 RMK A01 T01510128  RH  086%=      5-min Rain = 0.03
KFR1 270228Z 25014KT 15/13 A2996 RMK A01 T01490128  RH  087%=      5-min Rain = 0.02
KFR1 270229Z 25015KT 15/13 A2996 RMK A01 T01470129  RH  089%=      5-min Rain = 0.02
KFR1 270230Z 26010KT 15/13 A2995 RMK A01 T01460130  RH  090%=      5-min Rain = 0.03
KFR1 270231Z 25011KT 15/13 A2996 RMK A01 T01450130  RH  090%=      5-min Rain = 0.02
KFR1 270232Z 23011KT 14/13 A2997 RMK A01 T01440130  RH  091%=      5-min Rain = 0.01
KFR1 270233Z 21012KT 14/13 A2998 RMK A01 T01440131  RH  092%=      5-min Rain = 0.01
KFR1 270234Z 21012KT 14/13 A2998 RMK A01 T01440131  RH  092%=      5-min Rain = 0
KFR1 270235Z 20012KT 14/13 A2999 RMK A01 T01440131  RH  092%=      5-min Rain = 0.01
KFR1 270236Z 20013KT 14/13 A2999 RMK A01 T01440132  RH  093%=      5-min Rain = 0
KFR1 270237Z 20016G22KT 14/13 A30 RMK A01 T01430132  RH  093%=      5-min Rain = 0.01
KFR1 270238Z 20019KT 14/13 A3001 RMK A01 T01420131  RH  093%=      5-min Rain = 0.01
KFR1 270239Z 21020KT 14/13 A3001 RMK A01 T01430130  RH  092%=      5-min Rain = 0.01
KFR1 270240Z 21020KT 14/13 A3001 RMK A01 T01430130  RH  092%=      5-min Rain = 0.01
KFR1 270241Z 20019KT 14/13 A3001 RMK A01 T01440131  RH  092%=      5-min Rain = 0.02
KFR1 270242Z 22018KT 15/13 A30 RMK A01 T01450130  RH  091%=      5-min Rain = 0
KFR1 270243Z 22018G24KT 15/13 A30 RMK A01 T01450129  RH  090%=      5-min Rain = 0
KFR1 270244Z 20015KT 15/13 A2998 RMK A01 T01470129  RH  089%=      5-min Rain = 0.01
KFR1 270245Z 20009KT 15/13 A2996 RMK A01 T01470129  RH  089%=      5-min Rain = 0.01
KFR1 270246Z 20010KT 15/13 A2996 RMK A01 T01470129  RH  089%=      5-min Rain = 0
KFR1 270247Z 18014KT 15/13 A2996 RMK A01 T01470130  RH  090%=      5-min Rain = 0
KFR1 270248Z 18013KT 15/13 A2995 RMK A01 T01460131  RH  091%=      5-min Rain = 0.01
KFR1 270249Z 17013KT 15/13 A2994 RMK A01 T01450131  RH  091%=      5-min Rain = 0
KFR1 270250Z 16015KT 15/13 A2993 RMK A01 T01450130  RH  091%=      5-min Rain = 0
KFR1 270251Z 16012G20KT 15/13 A2992 RMK A01 T01450130  RH  090%=      5-min Rain = 0
KFR1 270252Z 17015G20KT 15/13 A2991 RMK A01 T01470130  RH  090%=      5-min Rain = 0
KFR1 270253Z 19015KT 15/13 A2991 RMK A01 T01510130  RH  087%=      5-min Rain = 0
KFR1 270254Z 19016KT 15/13 A2991 RMK A01 T01520129  RH  086%=      5-min Rain = 0
KFR1 270255Z 19014KT 15/13 A299 RMK A01 T01540129  RH  085%=      5-min Rain = 0
KFR1 270256Z 19015KT 16/13 A299 RMK A01 T01560129  RH  084%=      5-min Rain = 0
KFR1 270257Z 19019KT 16/13 A299 RMK A01 T01610129  RH  081%=      5-min Rain = 0
KFR1 270258Z 19017KT 17/13 A2991 RMK A01 T01670130  RH  079%=      5-min Rain = 0
KFR1 270259Z 20017KT 17/13 A2991 RMK A01 T01680130  RH  078%=      5-min Rain = 0
KFR1 270300Z 20021G26KT 17/13 A2991 RMK A01 T01680129  RH  078%=      5-min Rain = 0
KFR1 270301Z 20020G27KT 17/13 A2991 RMK A01 T01700128  RH  076%=      5-min Rain = 0
KFR1 270302Z 20019G25KT 17/13 A2991 RMK A01 T01710127  RH  075%=      5-min Rain = 0
KFR1 270303Z 20018G24KT 17/13 A2991 RMK A01 T01710127  RH  075%=      5-min Rain = 0.01
KFR1 270304Z 20019G26KT 17/13 A299 RMK A01 T01700127  RH  076%=      5-min Rain = 0
KFR1 270305Z 20022G28KT 17/13 A299 RMK A01 T01700125  RH  075%=      5-min Rain = 0
KFR1 270306Z 19025G31KT 17/12 A299 RMK A01 T01710124  RH  074%=      5-min Rain = 0
KFR1 270307Z 19020G25KT 17/12 A299 RMK A01 T01730123  RH  072%=      5-min Rain = 0.01
KFR1 270308Z 19025G31KT 17/12 A299 RMK A01 T01740124  RH  073%=      5-min Rain = 0
KFR1 270309Z 19024G31KT 17/13 A2991 RMK A01 T01730126  RH  074%=      5-min Rain = 0
KFR1 270310Z 19025G31KT 17/13 A2991 RMK A01 T01710127  RH  075%=      5-min Rain = 0
KFR1 270311Z 19021G26KT 17/13 A2991 RMK A01 T01690128  RH  077%=      5-min Rain = 0
KFR1 270312Z 19022G27KT 17/13 A2991 RMK A01 T01670129  RH  078%=      5-min Rain = 0
KFR1 270313Z 19020G26KT 17/13 A2991 RMK A01 T01650130  RH  080%=      5-min Rain = 0
KFR1 270314Z 19019KT 16/13 A2991 RMK A01 T01640131  RH  081%=      5-min Rain = 0
KFR1 270315Z 19019KT 16/13 A2991 RMK A01 T01630130  RH  081%=      5-min Rain = 0
KFR1 270316Z 19017G22KT 16/13 A2991 RMK A01 T01630131  RH  082%=      5-min Rain = 0
KFR1 270317Z 18016KT 16/13 A299 RMK A01 T01610131  RH  082%=      5-min Rain = 0
KFR1 270318Z 18013KT 16/13 A299 RMK A01 T01600131  RH  083%=      5-min Rain = 0
KFR1 270319Z 18013KT 16/13 A299 RMK A01 T01600131  RH  083%=      5-min Rain = 0
KFR1 270320Z 19013KT 16/13 A2989 RMK A01 T01590132  RH  084%=      5-min Rain = 0
KFR1 270321Z 18013KT 16/13 A2989 RMK A01 T01590131  RH  084%=      5-min Rain = 0
KFR1 270322Z 18014KT 16/13 A2989 RMK A01 T01590132  RH  084%=      5-min Rain = 0
KFR1 270323Z 18015KT 16/13 A2988 RMK A01 T01590132  RH  084%=      5-min Rain = 0
KFR1 270324Z 18014G19KT 16/13 A2988 RMK A01 T01590132  RH  084%=      5-min Rain = 0
KFR1 270325Z 18013KT 16/13 A2987 RMK A01 T01590132  RH  084%=      5-min Rain = 0
KFR1 270326Z 18011KT 16/13 A2987 RMK A01 T01580133  RH  085%=      5-min Rain = 0
KFR1 270327Z 19012KT 16/13 A2988 RMK A01 T01570133  RH  085%=      5-min Rain = 0
KFR1 270328Z 19011KT 16/13 A2989 RMK A01 T01570132  RH  085%=      5-min Rain = 0
KFR1 270329Z 19010KT 16/13 A2989 RMK A01 T01580133  RH  085%=      5-min Rain = 0
KFR1 270330Z 19010KT 16/13 A2989 RMK A01 T01580133  RH  085%=      5-min Rain = 0
KFR1 270331Z 19012KT 16/13 A2989 RMK A01 T01570133  RH  085%=      5-min Rain = 0
KFR1 270332Z 19012KT 16/13 A2989 RMK A01 T01570131  RH  085%=      5-min Rain = 0
KFR1 270333Z 20013KT 16/13 A2989 RMK A01 T01580131  RH  084%=      5-min Rain = 0
KFR1 270334Z 21011KT 16/13 A2989 RMK A01 T01590131  RH  084%=      5-min Rain = 0
KFR1 270335Z 21012KT 16/13 A2989 RMK A01 T01590132  RH  084%=      5-min Rain = 0
KFR1 270336Z 21013KT 16/13 A2989 RMK A01 T01590131  RH  083%=      5-min Rain = 0
KFR1 270337Z 21012KT 16/13 A2989 RMK A01 T01610130  RH  082%=      5-min Rain = 0
KFR1 270338Z 22013KT 16/13 A2989 RMK A01 T01620130  RH  081%=      5-min Rain = 0
KFR1 270339Z 22010KT 16/13 A2989 RMK A01 T01630130  RH  081%=      5-min Rain = 0
KFR1 270340Z 22010KT 16/13 A2989 RMK A01 T01630130  RH  081%=      5-min Rain = 0
KFR1 270341Z 23009KT 16/13 A2989 RMK A01 T01630131  RH  081%=      5-min Rain = 0
KFR1 270342Z 22009KT 16/13 A2989 RMK A01 T01620131  RH  082%=      5-min Rain = 0
KFR1 270343Z 22007KT 16/13 A2989 RMK A01 T01620131  RH  082%=      5-min Rain = 0
KFR1 270344Z 22007KT 16/13 A2989 RMK A01 T01610132  RH  083%=      5-min Rain = 0
KFR1 270345Z 23007KT 16/13 A2989 RMK A01 T01600132  RH  083%=      5-min Rain = 0
KFR1 270346Z 24007KT 16/13 A2989 RMK A01 T01600133  RH  084%=      5-min Rain = 0
KFR1 270347Z 25006KT 16/13 A2989 RMK A01 T01590134  RH  085%=      5-min Rain = 0
KFR1 270348Z 24006KT 16/13 A2989 RMK A01 T01580134  RH  085%=      5-min Rain = 0
KFR1 270349Z 24006KT 16/13 A2989 RMK A01 T01580134  RH  086%=      5-min Rain = 0
KFR1 270350Z 25006KT 16/13 A299 RMK A01 T01570133  RH  086%=      5-min Rain = 0
KFR1 270351Z 24006KT 16/13 A299 RMK A01 T01570134  RH  086%=      5-min Rain = 0
KFR1 270352Z 25006KT 16/13 A299 RMK A01 T01570133  RH  086%=      5-min Rain = 0
KFR1 270353Z 26007KT 16/13 A299 RMK A01 T01570133  RH  086%=      5-min Rain = 0
KFR1 270354Z 27007KT 16/13 A299 RMK A01 T01570133  RH  086%=      5-min Rain = 0
KFR1 270355Z 27007KT 16/13 A299 RMK A01 T01570133  RH  086%=      5-min Rain = 0
KFR1 270356Z 26007KT 16/13 A299 RMK A01 T01570133  RH  086%=      5-min Rain = 0
KFR1 270357Z 25007KT 16/13 A299 RMK A01 T01570133  RH  086%=      5-min Rain = 0
KFR1 270358Z 27006KT 16/13 A299 RMK A01 T01570133  RH  085%=      5-min Rain = 0
KFR1 270359Z 28006KT 16/13 A299 RMK A01 T01570133  RH  086%=      5-min Rain = 0
KFR1 270400Z 29007KT 16/13 A2991 RMK A01 T01570133  RH  086%=      5-min Rain = 0
KFR1 270401Z 29007KT 16/13 A2991 RMK A01 T01570133  RH  086%=      5-min Rain = 0
KFR1 270402Z 29008KT 16/13 A2991 RMK A01 T01570133  RH  085%=      5-min Rain = 0
KFR1 270403Z 30007KT 16/13 A2991 RMK A01 T01580133  RH  085%=      5-min Rain = 0
KFR1 270404Z 30008KT 16/13 A2991 RMK A01 T01580132  RH  084%=      5-min Rain = 0
KFR1 270405Z 31006G11KT 16/13 A2991 RMK A01 T01590132  RH  084%=      5-min Rain = 0
KFR1 270406Z 33006KT 16/14 A2991 RMK A01 T01590135  RH  085%=      5-min Rain = 0
KFR1 270407Z 31007KT 16/14 A2991 RMK A01 T01570135  RH  086%=      5-min Rain = 0
KFR1 270408Z 32006KT 16/13 A2991 RMK A01 T01550134  RH  088%=      5-min Rain = 0
KFR1 270409Z 31005KT 15/14 A2991 RMK A01 T01530135  RH  089%=      5-min Rain = 0
KFR1 270410Z 29006KT 15/14 A2992 RMK A01 T01520135  RH  089%=      5-min Rain = 0
KFR1 270411Z 27005KT 15/14 A2992 RMK A01 T01520135  RH  090%=      5-min Rain = 0
KFR1 270412Z 26004KT 15/13 A2992 RMK A01 T01510134  RH  090%=      5-min Rain = 0
KFR1 270413Z 26004KT 15/14 A2992 RMK A01 T01510135  RH  090%=      5-min Rain = 0
KFR1 270414Z 28005KT 15/13 A2992 RMK A01 T01510134  RH  090%=      5-min Rain = 0
KFR1 270415Z 29005KT 15/13 A2991 RMK A01 T01510132  RH  089%=      5-min Rain = 0
KFR1 270416Z 28004KT 15/13 A2991 RMK A01 T01510132  RH  088%=      5-min Rain = 0
KFR1 270417Z 28004KT 15/13 A2992 RMK A01 T01520133  RH  088%=      5-min Rain = 0
KFR1 270418Z 27006KT 15/13 A2992 RMK A01 T01520133  RH  088%=      5-min Rain = 0
KFR1 270419Z 29007KT 15/13 A2992 RMK A01 T01520133  RH  089%=      5-min Rain = 0
KFR1 270420Z 28006KT 15/13 A2992 RMK A01 T01520134  RH  089%=      5-min Rain = 0
KFR1 270421Z 29005KT 15/13 A2992 RMK A01 T01520133  RH  088%=      5-min Rain = 0
KFR1 270422Z 30004KT 15/13 A2992 RMK A01 T01530134  RH  089%=      5-min Rain = 0
KFR1 270423Z 30003KT 15/14 A2992 RMK A01 T01530135  RH  089%=      5-min Rain = 0
KFR1 270424Z 32002KT 15/14 A2992 RMK A01 T01530135  RH  089%=      5-min Rain = 0
KFR1 270425Z 30002KT 15/13 A2992 RMK A01 T01530134  RH  089%=      5-min Rain = 0
KFR1 270426Z 32002KT 15/13 A2991 RMK A01 T01530134  RH  088%=      5-min Rain = 0.01
KFR1 270427Z 32001KT 15/13 A2991 RMK A01 T01520134  RH  089%=      5-min Rain = 0
KFR1 270428Z 28001KT 15/13 A2991 RMK A01 T01520134  RH  089%=      5-min Rain = 0
KFR1 270429Z 22001KT 15/13 A299 RMK A01 T01520134  RH  089%=      5-min Rain = 0
KFR1 270430Z 21002KT 15/13 A299 RMK A01 T01520133  RH  089%=      5-min Rain = 0
KFR1 270431Z 20003KT 15/13 A299 RMK A01 T01520133  RH  088%=      5-min Rain = 0
KFR1 270432Z 18003KT 15/13 A299 RMK A01 T01520133  RH  089%=      5-min Rain = 0
KFR1 270433Z 17004KT 15/13 A2989 RMK A01 T01520134  RH  089%=      5-min Rain = 0
KFR1 270434Z 16005KT 15/13 A2989 RMK A01 T01520134  RH  089%=      5-min Rain = 0
KFR1 270435Z 16005KT 15/14 A2989 RMK A01 T01520135  RH  090%=      5-min Rain = 0
KFR1 270436Z 16005KT 15/14 A2989 RMK A01 T01510135  RH  090%=      5-min Rain = 0
KFR1 270437Z 16004KT 15/14 A2989 RMK A01 T01510135  RH  090%=      5-min Rain = 0
KFR1 270438Z 17003KT 15/14 A2989 RMK A01 T01510136  RH  091%=      5-min Rain = 0
KFR1 270439Z 16003KT 15/14 A2989 RMK A01 T01510136  RH  091%=      5-min Rain = 0
KFR1 270440Z 16002KT 15/14 A2989 RMK A01 T01500136  RH  091%=      5-min Rain = 0
KFR1 270441Z 16002KT 15/14 A2989 RMK A01 T01500135  RH  091%=      5-min Rain = 0
KFR1 270442Z 17003KT 15/14 A2989 RMK A01 T01510136  RH  091%=      5-min Rain = 0
KFR1 270443Z 19003KT 15/14 A299 RMK A01 T01510135  RH  091%=      5-min Rain = 0
KFR1 270444Z 19004KT 15/14 A299 RMK A01 T01500135  RH  091%=      5-min Rain = 0
KFR1 270445Z 20005KT 15/14 A299 RMK A01 T01510136  RH  091%=      5-min Rain = 0
KFR1 270446Z 20005KT 15/14 A299 RMK A01 T01510136  RH  091%=      5-min Rain = 0
KFR1 270447Z 20005KT 15/13 A299 RMK A01 T01510134  RH  090%=      5-min Rain = 0
KFR1 270448Z 19005KT 15/13 A299 RMK A01 T01520134  RH  089%=      5-min Rain = 0
KFR1 270449Z 19005KT 15/13 A299 RMK A01 T01520134  RH  089%=      5-min Rain = 0
KFR1 270450Z 20005KT 15/14 A299 RMK A01 T01520135  RH  090%=      5-min Rain = 0
KFR1 270451Z 20006KT 15/14 A299 RMK A01 T01520136  RH  090%=      5-min Rain = 0
KFR1 270452Z 20006KT 15/14 A299 RMK A01 T01520136  RH  090%=      5-min Rain = 0
KFR1 270453Z 20006KT 15/14 A299 RMK A01 T01520136  RH  090%=      5-min Rain = 0
KFR1 270454Z 20005KT 15/14 A299 RMK A01 T01520136  RH  090%=      5-min Rain = 0
KFR1 270455Z 20004KT 15/14 A299 RMK A01 T01520135  RH  090%=      5-min Rain = 0
KFR1 270456Z 20002KT 15/14 A299 RMK A01 T01520135  RH  090%=      5-min Rain = 0
KFR1 270457Z 22000KT 15/14 A299 RMK A01 T01520136  RH  090%=      5-min Rain = 0
KFR1 270458Z 33001KT 15/14 A299 RMK A01 T01520136  RH  090%=      5-min Rain = 0
KFR1 270459Z 33003KT 15/14 A299 RMK A01 T01520135  RH  090%=      5-min Rain = 0

Page generated in 0.0723 seconds.